Provisional Data: Bowman Creek near Noxen, PA


Please select a monitoring station.
Please select start date.
Please select start date.

Toggle Unit: C/F Toggle Unit: C/F
Sample Time Temperature (C) Temperature (F) Specific Conductivity (mS/cm) pH   Turbidity (NTU+) DO (mg/L)
10/17/2022 12:00:00 AM 10.18 50.324 0.034 6.53 1.78 10.95
10/17/2022 12:15:00 AM 10.12 50.216 0.034 6.54 1.79 10.97
10/17/2022 12:30:00 AM 10.06 50.108 0.034 6.53 1.77 10.98
10/17/2022 12:45:00 AM 10.01 50.018 0.033 6.56 1.75 11
10/17/2022 1:00:00 AM 9.95 49.91 0.034 6.54 1.88 11.01
10/17/2022 1:15:00 AM 9.89 49.802 0.034 6.55 1.78 11.04
10/17/2022 1:30:00 AM 9.84 49.712 0.034 6.58 1.76 11.05
10/17/2022 1:45:00 AM 9.79 49.622 0.034 6.54 1.79 11.06
10/17/2022 2:00:00 AM 9.74 49.532 0.034 6.52 1.85 11.07
10/17/2022 2:15:00 AM 9.69 49.442 0.034 6.58 1.78 11.09
10/17/2022 2:30:00 AM 9.64 49.352 0.034 6.53 1.82 11.1
10/17/2022 2:45:00 AM 9.6 49.28 0.034 6.58 1.84 11.1
10/17/2022 3:00:00 AM 9.55 49.19 0.034 6.52 1.85 11.12
10/17/2022 3:15:00 AM 9.5 49.1 0.034 6.54 1.85 11.13
10/17/2022 3:30:00 AM 9.45 49.01 0.034 6.53 1.79 11.15
10/17/2022 3:45:00 AM 9.41 48.938 0.034 6.57 1.86 11.15
10/17/2022 4:00:00 AM 9.36 48.848 0.034 6.52 1.73 11.17
10/17/2022 4:15:00 AM 9.32 48.776 0.034 6.52 1.8 11.19
10/17/2022 4:30:00 AM 9.27 48.686 0.034 6.53 1.81 11.2
10/17/2022 4:45:00 AM 9.23 48.614 0.034 6.55 1.72 11.2
10/17/2022 5:00:00 AM 9.18 48.524 0.034 6.53 1.77 11.22
10/17/2022 5:15:00 AM 9.14 48.452 0.034 6.57 1.79 11.23
10/17/2022 5:30:00 AM 9.1 48.38 0.034 6.53 1.74 11.24
10/17/2022 5:45:00 AM 9.07 48.326 0.034 6.53 1.74 11.25
10/17/2022 6:00:00 AM 9.04 48.272 0.034 6.52 1.79 11.26
10/17/2022 6:15:00 AM 9.01 48.218 0.034 6.54 1.78 11.26
10/17/2022 6:30:00 AM 8.99 48.182 0.034 6.54 1.76 11.28
10/17/2022 6:45:00 AM 8.97 48.146 0.034 6.54 1.78 11.28
10/17/2022 7:00:00 AM 8.95 48.11 0.034 6.58 1.72 11.29
10/17/2022 7:15:00 AM 8.93 48.074 0.034 6.54 1.81 11.3
10/17/2022 7:30:00 AM 8.91 48.038 0.034 6.55 1.79 11.31
10/17/2022 7:45:00 AM 8.9 48.02 0.034 6.55 1.82 11.34
10/17/2022 8:00:00 AM 8.9 48.02 0.034 6.54 1.78 11.37
10/17/2022 8:15:00 AM 8.9 48.02 0.034 6.54 1.66 11.38
10/17/2022 8:30:00 AM 8.91 48.038 0.034 6.55 1.7 11.41
10/17/2022 8:45:00 AM 8.92 48.056 0.034 6.54 1.74 11.47
10/17/2022 9:00:00 AM 8.94 48.092 0.034 6.56 1.69 11.52
10/17/2022 9:15:00 AM 8.97 48.146 0.034 6.63 1.78 11.57
10/17/2022 9:30:00 AM 9.02 48.236 0.034 6.59 1.73 11.6
10/17/2022 9:45:00 AM 9.07 48.326 0.034 6.63 1.67 11.64
10/17/2022 10:00:00 AM 9.12 48.416 0.034 6.62 1.76 11.64
10/17/2022 10:15:00 AM 9.16 48.488 0.034 6.61 1.7 11.62
10/17/2022 10:30:00 AM 9.2 48.56 0.034 6.62 1.71 11.61
10/17/2022 10:45:00 AM 9.26 48.668 0.034 6.63 1.71 11.62
10/17/2022 11:00:00 AM 9.33 48.794 0.034 6.65 1.81 11.64
10/17/2022 11:15:00 AM 9.42 48.956 0.034 6.66 1.73 11.64
10/17/2022 11:30:00 AM 9.51 49.118 0.034 6.71 1.63 11.62
10/17/2022 11:45:00 AM 9.62 49.316 0.033 6.67 1.72 11.62
10/17/2022 12:00:00 PM 9.71 49.478 0.034 6.67 1.72 11.6
10/17/2022 12:15:00 PM 9.8 49.64 0.033 6.72 1.68 11.57
10/17/2022 12:30:00 PM 9.88 49.784 0.033 6.69 1.7 11.54
10/17/2022 12:45:00 PM 9.95 49.91 0.033 6.69 1.75 11.52
10/17/2022 1:00:00 PM 10.05 50.09 0.033 6.7 1.64 11.51
10/17/2022 1:15:00 PM 10.19 50.342 0.033 6.74 1.64 11.48
10/17/2022 1:30:00 PM 10.25 50.45 0.033 6.68 1.75 11.43
10/17/2022 1:45:00 PM 10.31 50.558 0.033 6.68 1.65 11.4
10/17/2022 2:00:00 PM 10.37 50.666 0.033 6.69 1.73 11.38
10/17/2022 2:15:00 PM 10.4 50.72 0.033 6.69 1.65 11.35
10/17/2022 2:30:00 PM 10.52 50.936 0.033 6.69 1.67 11.35
10/17/2022 2:45:00 PM 10.56 51.008 0.033 6.74 1.6 11.3
10/17/2022 3:00:00 PM 10.57 51.026 0.034 6.68 1.69 11.18
10/17/2022 3:15:00 PM 10.58 51.044 0.034 6.71 1.69 11.11
10/17/2022 3:30:00 PM 10.57 51.026 0.034 6.67 1.71 11.1
10/17/2022 3:45:00 PM 10.6 51.08 0.034 6.65 1.7 11.15
10/17/2022 4:00:00 PM 10.62 51.116 0.034 6.65 1.68 11.11
10/17/2022 4:15:00 PM 10.67 51.206 0.034 6.66 1.71 11.1
10/17/2022 4:30:00 PM 10.72 51.296 0.034 6.66 1.74 11.14
10/17/2022 4:45:00 PM 10.7 51.26 0.034 6.66 1.73 11.12
10/17/2022 5:00:00 PM 10.74 51.332 0.034 6.68 1.74 11.12
10/17/2022 5:15:00 PM 10.75 51.35 0.034 6.71 1.88 11.11
10/17/2022 5:30:00 PM 10.76 51.368 0.034 6.68 1.71 11.08
10/17/2022 5:45:00 PM 10.75 51.35 0.034 6.66 1.68 11.03
10/17/2022 6:00:00 PM 10.73 51.314 0.034 6.69 1.74 10.98
10/17/2022 6:15:00 PM 10.71 51.278 0.034 6.64 1.8 10.93
10/17/2022 6:30:00 PM 10.69 51.242 0.034 6.52 1.72 10.87
10/17/2022 6:45:00 PM 10.66 51.188 0.034 6.62 1.75 10.83
10/17/2022 7:00:00 PM 10.64 51.152 0.034 6.66 1.73 10.81
10/17/2022 7:15:00 PM 10.61 51.098 0.034 6.6 1.83 10.8
10/17/2022 7:30:00 PM 10.57 51.026 0.034 6.61 1.92 10.79
10/17/2022 7:45:00 PM 10.54 50.972 0.034 6.57 1.75 10.79
10/17/2022 8:00:00 PM 10.52 50.936 0.034 6.62 1.73 10.8
10/17/2022 8:15:00 PM 10.49 50.882 0.034 6.63 1.8 10.8
10/17/2022 8:30:00 PM 10.47 50.846 0.035 6.57 1.86 10.8
10/17/2022 8:45:00 PM 10.45 50.81 0.035 6.58 1.78 10.81
10/17/2022 9:00:00 PM 10.42 50.756 0.035 6.59 1.7 10.82
10/17/2022 9:15:00 PM 10.39 50.702 0.035 6.57 1.73 10.83
10/17/2022 9:30:00 PM 10.35 50.63 0.035 6.61 1.77 10.83
10/17/2022 9:45:00 PM 10.32 50.576 0.035 6.57 1.72 10.84
10/17/2022 10:00:00 PM 10.27 50.486 0.035 6.61 1.77 10.86
10/17/2022 10:15:00 PM 10.22 50.396 0.034 6.57 1.73 10.87
10/17/2022 10:30:00 PM 10.16 50.288 0.035 6.58 1.74 10.89
10/17/2022 10:45:00 PM 10.12 50.216 0.035 6.57 1.75 10.9
10/17/2022 11:00:00 PM 10.08 50.144 0.035 6.56 1.75 10.91
10/17/2022 11:15:00 PM 10.03 50.054 0.035 6.56 1.79 10.92
10/17/2022 11:30:00 PM 9.99 49.982 0.035 6.61 1.74 10.93
10/17/2022 11:45:00 PM 9.95 49.91 0.035 6.59 1.79 10.94
10/18/2022 12:00:00 AM 9.91 49.838 0.035 6.56 1.74 10.95
10/18/2022 12:15:00 AM 9.87 49.766 0.035 6.58 1.76 10.96
10/18/2022 12:30:00 AM 9.82 49.676 0.035 6.57 1.79 10.98
10/18/2022 12:45:00 AM 9.77 49.586 0.035 6.57 1.78 10.99
10/18/2022 1:00:00 AM 9.7 49.46 0.035 6.55 1.72 11.01
10/18/2022 1:15:00 AM 9.64 49.352 0.035 6.61 1.75 11.02
10/18/2022 1:30:00 AM 9.58 49.244 0.035 6.57 1.74 11.04
10/18/2022 1:45:00 AM 9.51 49.118 0.035 6.57 1.78 11.05
10/18/2022 2:00:00 AM 9.46 49.028 0.035 6.57 1.75 11.07
10/18/2022 2:15:00 AM 9.4 48.92 0.035 6.57 1.69 11.09
10/18/2022 2:30:00 AM 9.34 48.812 0.035 6.59 1.71 11.11
10/18/2022 2:45:00 AM 9.28 48.704 0.035 6.61 1.78 11.13
10/18/2022 3:00:00 AM 9.21 48.578 0.035 6.61 1.76 11.15
10/18/2022 3:15:00 AM 9.15 48.47 0.035 6.59 2.02 11.16
10/18/2022 3:30:00 AM 9.08 48.344 0.035 6.57 1.77 11.18
10/18/2022 3:45:00 AM 9.01 48.218 0.035 6.59 1.75 11.2
10/18/2022 4:00:00 AM 8.95 48.11 0.035 6.61 1.76 11.21
10/18/2022 4:15:00 AM 8.88 47.984 0.035 6.56 1.7 11.24
10/18/2022 4:30:00 AM 8.82 47.876 0.035 6.54 1.77 11.25
10/18/2022 4:45:00 AM 8.75 47.75 0.035 6.55 1.74 11.28
10/18/2022 5:00:00 AM 8.69 47.642 0.035 6.54 1.77 11.3
10/18/2022 5:15:00 AM 8.62 47.516 0.035 6.55 1.71 11.32
10/18/2022 5:30:00 AM 8.56 47.408 0.035 6.55 1.76 11.33
10/18/2022 5:45:00 AM 8.5 47.3 0.035 6.54 1.74 11.35
10/18/2022 6:00:00 AM 8.44 47.192 0.035 6.54 1.81 11.37
10/18/2022 6:15:00 AM 8.38 47.084 0.035 6.55 1.86 11.39
10/18/2022 6:30:00 AM 8.32 46.976 0.035 6.58 1.68 11.41
10/18/2022 6:45:00 AM 8.26 46.868 0.035 6.56 1.79 11.43
10/18/2022 7:00:00 AM 8.2 46.76 0.035 6.59 1.77 11.45
10/18/2022 7:15:00 AM 8.15 46.67 0.035 6.58 1.78 11.47
10/18/2022 7:30:00 AM 8.1 46.58 0.035 6.54 1.72 11.49
10/18/2022 7:45:00 AM 8.05 46.49 0.035 6.53 1.72 11.54
10/18/2022 8:00:00 AM 8 46.4 0.035 6.55 1.76 11.58
10/18/2022 8:15:00 AM 7.96 46.328 0.035 6.59 1.71 11.63
10/18/2022 8:30:00 AM 7.92 46.256 0.035 6.61 1.77 11.68
10/18/2022 8:45:00 AM 7.89 46.202 0.035 6.56 1.73 11.72
10/18/2022 9:00:00 AM 7.86 46.148 0.035 6.56 1.72 11.76
10/18/2022 9:15:00 AM 7.84 46.112 0.035 6.57 1.79 11.8
10/18/2022 9:30:00 AM 7.84 46.112 0.035 6.63 1.65 11.83
10/18/2022 9:45:00 AM 7.84 46.112 0.035 6.61 1.78 11.85
10/18/2022 10:00:00 AM 7.86 46.148 0.035 6.65 1.69 11.87
10/18/2022 10:15:00 AM 7.89 46.202 0.035 6.67 1.7 11.9
10/18/2022 10:30:00 AM 7.97 46.346 0.035 6.63 1.73 11.93
10/18/2022 10:45:00 AM 8.07 46.526 0.035 6.64 1.72 11.94
10/18/2022 11:00:00 AM 8.2 46.76 0.035 6.66 1.74 11.95
10/18/2022 11:15:00 AM 8.3 46.94 0.034 6.71 1.72 11.94
10/18/2022 11:30:00 AM 8.43 47.174 0.034 6.71 1.8 11.93
10/18/2022 11:45:00 AM 8.61 47.498 0.034 6.68 1.7 11.9
10/18/2022 12:00:00 PM 8.84 47.912 0.034 6.72 1.69 11.88
10/18/2022 12:15:00 PM 9 48.2 0.034 6.72 1.72 11.82
10/18/2022 12:30:00 PM 9.08 48.344 0.034 6.76 1.7 11.8
10/18/2022 12:45:00 PM 9.3 48.74 0.035 6.74 1.79 11.79
10/18/2022 1:00:00 PM 9.36 48.848 0.034 6.75 1.73 11.75
10/18/2022 1:15:00 PM 9.34 48.812 0.035 6.74 1.74 11.74
10/18/2022 1:30:00 PM 9.32 48.776 0.035 6.74 1.72 11.72
10/18/2022 1:45:00 PM 9.31 48.758 0.035 6.75 1.71 11.73
10/18/2022 2:00:00 PM 9.32 48.776 0.035 6.74 1.73 11.72
10/18/2022 2:15:00 PM 9.3 48.74 0.035 6.75 1.68 11.7
10/18/2022 2:30:00 PM 9.28 48.704 0.035 6.77 1.73 11.68
10/18/2022 2:45:00 PM 9.26 48.668 0.035 6.73 1.74 11.67
10/18/2022 3:00:00 PM 9.25 48.65 0.035 6.75 1.72 11.68
10/18/2022 3:15:00 PM 9.26 48.668 0.035 6.73 1.69 11.69
10/18/2022 3:30:00 PM 9.27 48.686 0.035 6.74 1.67 11.68
10/18/2022 3:45:00 PM 9.27 48.686 0.035 6.72 1.89 11.64
10/18/2022 4:00:00 PM 9.28 48.704 0.035 6.71 1.71 11.61
10/18/2022 4:15:00 PM 9.28 48.704 0.035 6.7 1.88 11.58
10/18/2022 4:30:00 PM 9.27 48.686 0.035 6.72 1.69 11.57
10/18/2022 4:45:00 PM 9.27 48.686 0.035 6.71 1.7 11.55
10/18/2022 5:00:00 PM 9.28 48.704 0.035 6.71 1.66 11.54
10/18/2022 5:15:00 PM 9.28 48.704 0.035 6.68 1.68 11.53
10/18/2022 5:30:00 PM 9.27 48.686 0.035 6.73 1.68 11.49
10/18/2022 5:45:00 PM 9.25 48.65 0.035 6.72 1.71 11.45
10/18/2022 6:00:00 PM 9.21 48.578 0.035 6.66 1.74 11.42
10/18/2022 6:15:00 PM 9.16 48.488 0.035 6.66 1.75 11.36
10/18/2022 6:30:00 PM 9.12 48.416 0.035 6.66 1.76 11.31
10/18/2022 6:45:00 PM 9.07 48.326 0.035 6.66 1.72 11.28
10/18/2022 7:00:00 PM 9.02 48.236 0.036 6.63 1.74 11.26
10/18/2022 7:15:00 PM 8.97 48.146 0.035 6.63 1.82 11.26
10/18/2022 7:30:00 PM 8.92 48.056 0.036 6.63 1.73 11.26
10/18/2022 7:45:00 PM 8.87 47.966 0.035 6.61 1.79 11.27
10/18/2022 8:00:00 PM 8.81 47.858 0.036 6.65 1.83 11.28
10/18/2022 8:15:00 PM 8.76 47.768 0.036 6.61 1.75 11.29
10/18/2022 8:30:00 PM 8.7 47.66 0.036 6.61 1.72 11.3
10/18/2022 8:45:00 PM 8.64 47.552 0.036 6.65 1.71 11.32
10/18/2022 9:00:00 PM 8.59 47.462 0.036 6.61 1.75 11.33
10/18/2022 9:15:00 PM 8.54 47.372 0.036 6.6 1.75 11.35
10/18/2022 9:30:00 PM 8.49 47.282 0.036 6.65 1.76 11.36
10/18/2022 9:45:00 PM 8.46 47.228 0.036 6.6 1.72 11.38
10/18/2022 10:00:00 PM 8.43 47.174 0.036 6.61 1.76 11.39
10/18/2022 10:15:00 PM 8.39 47.102 0.036 6.61 1.73 11.4
10/18/2022 10:30:00 PM 8.35 47.03 0.036 6.59 1.81 11.41
10/18/2022 10:45:00 PM 8.3 46.94 0.036 6.59 1.73 11.43
10/18/2022 11:00:00 PM 8.26 46.868 0.036 6.58 1.88 11.44
10/18/2022 11:15:00 PM 8.2 46.76 0.036 6.57 1.75 11.46
10/18/2022 11:30:00 PM 8.15 46.67 0.036 6.56 1.83 11.47
10/18/2022 11:45:00 PM 8.1 46.58 0.036 6.62 1.74 11.48
10/19/2022 12:00:00 AM 8.04 46.472 0.036 6.56 1.8 11.5
10/19/2022 12:15:00 AM 7.99 46.382 0.036 6.57 1.78 11.52
10/19/2022 12:30:00 AM 7.93 46.274 0.036 6.58 1.72 11.54
10/19/2022 12:45:00 AM 7.87 46.166 0.036 6.46 1.79 11.55
10/19/2022 1:00:00 AM 7.82 46.076 0.036 6.56 1.75 11.58
10/19/2022 1:15:00 AM 7.76 45.968 0.036 6.61 1.79 11.59
10/19/2022 1:30:00 AM 7.7 45.86 0.036 6.58 1.79 11.61
10/19/2022 1:45:00 AM 7.65 45.77 0.036 6.58 1.76 11.63
10/19/2022 2:00:00 AM 7.6 45.68 0.036 6.55 1.76 11.64
10/19/2022 2:15:00 AM 7.55 45.59 0.036 6.57 1.75 11.66
10/19/2022 2:30:00 AM 7.5 45.5 0.036 6.57 1.8 11.68
10/19/2022 2:45:00 AM 7.45 45.41 0.036 6.56 1.76 11.7
10/19/2022 3:00:00 AM 7.4 45.32 0.036 6.56 1.73 11.71
10/19/2022 3:15:00 AM 7.35 45.23 0.036 6.6 1.77 11.72
10/19/2022 3:30:00 AM 7.3 45.14 0.036 6.6 1.85 11.74
10/19/2022 3:45:00 AM 7.25 45.05 0.036 6.58 1.76 11.75
10/19/2022 4:00:00 AM 7.21 44.978 0.036 6.55 1.73 11.77
10/19/2022 4:15:00 AM 7.16 44.888 0.036 6.57 1.75 11.78
10/19/2022 4:30:00 AM 7.13 44.834 0.036 6.56 1.71 11.79
10/19/2022 4:45:00 AM 7.1 44.78 0.036 6.56 4.68 11.81
10/19/2022 5:00:00 AM 7.08 44.744 0.036 6.56 1.76 11.82
10/19/2022 5:15:00 AM 7.06 44.708 0.036 6.57 1.69 11.82
10/19/2022 5:30:00 AM 7.05 44.69 0.036 6.62 1.73 11.83
10/19/2022 5:45:00 AM 7.03 44.654 0.036 6.58 1.73 11.83
10/19/2022 6:00:00 AM 7.02 44.636 0.036 6.57 1.74 11.84
10/19/2022 6:15:00 AM 7.01 44.618 0.036 6.57 1.71 11.84
10/19/2022 6:30:00 AM 7.01 44.618 0.036 6.57 1.78 11.84
10/19/2022 6:45:00 AM 7.01 44.618 0.036 6.59 1.69 11.85
10/19/2022 7:00:00 AM 7 44.6 0.036 6.61 1.78 11.85
10/19/2022 7:15:00 AM 7 44.6 0.036 6.58 1.73 11.86
10/19/2022 7:30:00 AM 6.99 44.582 0.036 6.63 1.73 11.86
10/19/2022 7:45:00 AM 6.99 44.582 0.036 6.59 1.74 11.88
10/19/2022 8:00:00 AM 6.99 44.582 0.036 6.59 3.69 11.92
10/19/2022 8:15:00 AM 6.99 44.582 0.036 6.63 1.74 11.98
10/19/2022 8:30:00 AM 7 44.6 0.036 6.61 1.72 11.99
10/19/2022 8:45:00 AM 7.02 44.636 0.036 6.61 1.75 12.06
10/19/2022 9:00:00 AM 7.05 44.69 0.036 6.62 1.77 12.12
10/19/2022 9:15:00 AM 7.1 44.78 0.036 6.65 1.73 12.18
10/19/2022 9:30:00 AM 7.18 44.924 0.036 6.7 1.75 12.21
10/19/2022 9:45:00 AM 7.21 44.978 0.036 6.66 1.7 12.22
10/19/2022 10:00:00 AM 7.29 45.122 0.036 6.68 1.75 12.23
10/19/2022 10:15:00 AM 7.33 45.194 0.036 6.69 1.71 12.23
10/19/2022 10:30:00 AM 7.38 45.284 0.036 6.7 1.73 12.22
10/19/2022 10:45:00 AM 7.44 45.392 0.036 6.69 1.7 12.23
10/19/2022 11:00:00 AM 7.51 45.518 0.036 6.71 1.76 12.21
10/19/2022 11:15:00 AM 7.55 45.59 0.036 6.72 1.64 12.19
10/19/2022 11:30:00 AM 7.58 45.644 0.036 6.72 1.71 12.16
10/19/2022 11:45:00 AM 7.6 45.68 0.036 6.73 1.7 12.13
10/19/2022 12:00:00 PM 7.61 45.698 0.036 6.71 1.71 12.12
10/19/2022 12:15:00 PM 7.63 45.734 0.036 6.73 1.73 12.11
10/19/2022 12:30:00 PM 7.64 45.752 0.036 6.72 1.72 12.11
10/19/2022 12:45:00 PM 7.67 45.806 0.036 6.76 1.7 12.12
10/19/2022 1:00:00 PM 7.7 45.86 0.036 6.74 1.71 12.1
10/19/2022 1:15:00 PM 7.73 45.914 0.036 6.78 1.69 12.1
10/19/2022 1:30:00 PM 7.76 45.968 0.036 6.72 1.73 12.1
10/19/2022 1:45:00 PM 7.77 45.986 0.036 6.72 1.71 12.09
10/19/2022 2:00:00 PM 7.79 46.022 0.036 6.76 1.79 12.09
10/19/2022 2:15:00 PM 7.83 46.094 0.036 6.77 1.71 12.07
10/19/2022 2:30:00 PM 7.85 46.13 0.036 6.74 1.64 12.06
10/19/2022 2:45:00 PM 7.87 46.166 0.036 6.74 1.77 12.01
10/19/2022 3:00:00 PM 7.88 46.184 0.036 6.76 1.72 11.99
10/19/2022 3:15:00 PM 7.9 46.22 0.036 6.76 1.7 11.98
10/19/2022 3:30:00 PM 7.93 46.274 0.036 6.72 1.72 11.98
10/19/2022 3:45:00 PM 7.96 46.328 0.036 6.75 1.7 11.97
10/19/2022 4:00:00 PM 7.98 46.364 0.036 6.73 1.66 11.97
10/19/2022 4:15:00 PM 8.01 46.418 0.035 6.72 1.66 11.98
10/19/2022 4:30:00 PM 8.03 46.454 0.036 6.72 1.68 11.98
10/19/2022 4:45:00 PM 8.07 46.526 0.036 6.72 1.86 11.97
10/19/2022 5:00:00 PM 8.1 46.58 0.036 6.76 1.66 11.97
10/19/2022 5:15:00 PM 8.11 46.598 0.036 6.75 1.74 11.95
10/19/2022 5:30:00 PM 8.09 46.562 0.036 6.69 1.7 11.89
10/19/2022 5:45:00 PM 8.08 46.544 0.036 6.7 1.75 11.83
10/19/2022 6:00:00 PM 8.09 46.562 0.036 6.72 1.68 11.77
10/19/2022 6:15:00 PM 8.07 46.526 0.036 6.66 1.73 11.71
10/19/2022 6:30:00 PM 8.07 46.526 0.036 6.66 1.75 11.66
10/19/2022 6:45:00 PM 8.07 46.526 0.036 6.65 1.7 11.62
10/19/2022 7:00:00 PM 8.07 46.526 0.036 6.67 1.84 11.59
10/19/2022 7:15:00 PM 8.06 46.508 0.036 6.62 1.75 11.58
10/19/2022 7:30:00 PM 8.06 46.508 0.036 6.63 1.73 11.57
10/19/2022 7:45:00 PM 8.06 46.508 0.036 6.63 1.69 11.56
10/19/2022 8:00:00 PM 8.05 46.49 0.036 6.62 1.78 11.56
10/19/2022 8:15:00 PM 8.02 46.436 0.036 6.65 1.71 11.56
10/19/2022 8:30:00 PM 8.01 46.418 0.036 6.67 1.66 11.56
10/19/2022 8:45:00 PM 7.97 46.346 0.036 6.62 3.27 11.56
10/19/2022 9:00:00 PM 7.95 46.31 0.036 6.61 1.71 11.58
10/19/2022 9:15:00 PM 7.93 46.274 0.036 6.62 1.73 11.58
10/19/2022 9:30:00 PM 7.92 46.256 0.036 6.62 1.69 11.59
10/19/2022 9:45:00 PM 7.91 46.238 0.036 6.63 1.77 11.59
10/19/2022 10:00:00 PM 7.9 46.22 0.036 6.63 1.67 11.6
10/19/2022 10:15:00 PM 7.9 46.22 0.036 6.64 1.78 11.6
10/19/2022 10:30:00 PM 7.89 46.202 0.036 6.61 1.75 11.6
10/19/2022 10:45:00 PM 7.87 46.166 0.036 6.61 1.7 11.62
10/19/2022 11:00:00 PM 7.86 46.148 0.036 6.63 1.72 11.62
10/19/2022 11:15:00 PM 7.85 46.13 0.036 6.6 1.74 11.62
10/19/2022 11:30:00 PM 7.83 46.094 0.036 6.6 1.74 11.63
10/19/2022 11:45:00 PM 7.81 46.058 0.036 6.6 1.74 11.63
10/20/2022 12:00:00 AM 7.79 46.022 0.036 6.66 1.76 11.64
10/20/2022 12:15:00 AM 7.79 46.022 0.036 6.66 1.72 11.64
10/20/2022 12:30:00 AM 7.79 46.022 0.036 6.66 1.72 11.65
10/20/2022 12:45:00 AM 7.78 46.004 0.037 6.6 1.7 11.65
10/20/2022 1:00:00 AM 7.77 45.986 0.037 6.6 1.68 11.65
10/20/2022 1:15:00 AM 7.76 45.968 0.036 6.63 1.69 11.66
10/20/2022 1:30:00 AM 7.73 45.914 0.036 6.61 1.7 11.66
10/20/2022 1:45:00 AM 7.72 45.896 0.036 6.64 1.75 11.67
10/20/2022 2:00:00 AM 7.7 45.86 0.036 6.58 1.69 11.68
10/20/2022 2:15:00 AM 7.69 45.842 0.037 6.59 1.7 11.67
10/20/2022 2:30:00 AM 7.67 45.806 0.036 6.6 1.75 11.68
10/20/2022 2:45:00 AM 7.67 45.806 0.037 6.6 1.73 11.69
10/20/2022 3:00:00 AM 7.66 45.788 0.036 6.61 1.76 11.69
10/20/2022 3:15:00 AM 7.65 45.77 0.037 6.6 2.72 11.69
10/20/2022 3:30:00 AM 7.62 45.716 0.036 6.59 1.73 11.69
10/20/2022 3:45:00 AM 7.6 45.68 0.037 6.64 1.68 11.7
10/20/2022 4:00:00 AM 7.57 45.626 0.036 6.62 1.6 11.71
10/20/2022 4:15:00 AM 7.54 45.572 0.037 6.6 1.72 11.71
10/20/2022 4:30:00 AM 7.51 45.518 0.037 6.6 1.61 11.72
10/20/2022 4:45:00 AM 7.48 45.464 0.036 6.64 1.61 11.73
10/20/2022 5:00:00 AM 7.45 45.41 0.037 6.57 1.61 11.74
10/20/2022 5:15:00 AM 7.41 45.338 0.037 6.63 1.6 11.76
10/20/2022 5:30:00 AM 7.37 45.266 0.037 6.61 1.73 11.77
10/20/2022 5:45:00 AM 7.33 45.194 0.037 6.63 1.66 11.78
10/20/2022 6:00:00 AM 7.29 45.122 0.037 6.57 1.62 11.79
10/20/2022 6:15:00 AM 7.24 45.032 0.037 6.57 1.58 11.8
10/20/2022 6:30:00 AM 7.2 44.96 0.037 6.62 1.66 11.82
10/20/2022 6:45:00 AM 7.16 44.888 0.037 6.57 1.66 11.83
10/20/2022 7:00:00 AM 7.12 44.816 0.037 6.57 1.68 11.85
10/20/2022 7:15:00 AM 7.08 44.744 0.037 6.61 1.64 11.86
10/20/2022 7:30:00 AM 7.06 44.708 0.037 6.62 1.63 11.89
10/20/2022 7:45:00 AM 7.04 44.672 0.036 6.57 1.67 11.94
10/20/2022 8:00:00 AM 7.04 44.672 0.036 6.61 1.82 12.01
10/20/2022 8:15:00 AM 7.04 44.672 0.037 6.63 1.65 12.1
10/20/2022 8:30:00 AM 7.05 44.69 0.037 6.63 1.63 12.16
10/20/2022 8:45:00 AM 7.07 44.726 0.036 6.64 1.66 12.22
10/20/2022 9:00:00 AM 7.1 44.78 0.036 6.66 1.58 12.25
10/20/2022 9:15:00 AM 7.13 44.834 0.036 6.66 1.59 12.28
10/20/2022 9:30:00 AM 7.16 44.888 0.036 6.68 1.62 12.31
10/20/2022 9:45:00 AM 7.15 44.87 0.036 6.7 1.6 12.29
10/20/2022 10:00:00 AM 7.2 44.96 0.036 6.7 1.61 12.29
10/20/2022 10:15:00 AM 7.25 45.05 0.036 6.74 1.64 12.3
10/20/2022 10:30:00 AM 7.34 45.212 0.036 6.7 1.6 12.32
10/20/2022 10:45:00 AM 7.43 45.374 0.036 6.71 1.6 12.32
10/20/2022 11:00:00 AM 7.51 45.518 0.036 6.76 1.62 12.32
10/20/2022 11:15:00 AM 7.62 45.716 0.036 6.77 1.61 12.3
10/20/2022 11:30:00 AM 7.74 45.932 0.036 6.74 1.64 12.28
10/20/2022 11:45:00 AM 7.88 46.184 0.036 6.79 1.56 12.25
10/20/2022 12:00:00 PM 8.04 46.472 0.036 6.76 1.59 12.21
10/20/2022 12:15:00 PM 8.24 46.832 0.036 6.75 1.55 12.16
10/20/2022 12:30:00 PM 8.45 47.21 0.036 6.75 1.57 12.1
10/20/2022 12:45:00 PM 8.62 47.516 0.036 6.74 1.58 12.05
10/20/2022 1:00:00 PM 8.79 47.822 0.036 6.76 1.59 11.99
10/20/2022 1:15:00 PM 8.96 48.128 0.036 6.76 1.58 11.94
10/20/2022 1:30:00 PM 9.09 48.362 0.036 6.75 1.54 11.9
10/20/2022 1:45:00 PM 9.2 48.56 0.036 6.8 1.53 11.86
10/20/2022 2:00:00 PM 9.27 48.686 0.036 6.76 1.64 11.83
10/20/2022 2:15:00 PM 9.34 48.812 0.036 6.8 1.61 11.82
10/20/2022 2:30:00 PM 9.38 48.884 0.036 6.79 1.86 11.81
10/20/2022 2:45:00 PM 9.4 48.92 0.036 6.78 1.6 11.78
10/20/2022 3:00:00 PM 9.41 48.938 0.036 6.66 1.57 11.76
10/20/2022 3:15:00 PM 9.4 48.92 0.036 6.77 1.54 11.75
10/20/2022 3:30:00 PM 9.36 48.848 0.036 6.8 1.61 11.73
10/20/2022 3:45:00 PM 9.31 48.758 0.036 6.8 1.6 11.72
10/20/2022 4:00:00 PM 9.22 48.596 0.036 6.77 1.57 11.71
10/20/2022 4:15:00 PM 9.18 48.524 0.036 6.8 1.57 11.72
10/20/2022 4:30:00 PM 9.09 48.362 0.036 6.75 1.61 11.71
10/20/2022 4:45:00 PM 8.98 48.164 0.036 6.72 1.6 11.71
10/20/2022 5:00:00 PM 8.94 48.092 0.036 6.73 1.7 11.74
10/20/2022 5:15:00 PM 8.87 47.966 0.036 6.78 1.56 11.73
10/20/2022 5:30:00 PM 8.77 47.786 0.036 6.73 1.57 11.7
10/20/2022 5:45:00 PM 8.7 47.66 0.036 6.72 1.55 11.66
10/20/2022 6:00:00 PM 8.63 47.534 0.036 6.75 1.59 11.63
10/20/2022 6:15:00 PM 8.57 47.426 0.036 6.71 1.57 11.58
10/20/2022 6:30:00 PM 8.51 47.318 0.037 6.67 1.57 11.53
10/20/2022 6:45:00 PM 8.47 47.246 0.037 6.66 1.63 11.49
10/20/2022 7:00:00 PM 8.44 47.192 0.037 6.66 1.62 11.48
10/20/2022 7:15:00 PM 8.4 47.12 0.037 6.64 1.61 11.46
10/20/2022 7:30:00 PM 8.37 47.066 0.037 6.69 1.58 11.45
10/20/2022 7:45:00 PM 8.33 46.994 0.037 6.63 1.69 11.46
10/20/2022 8:00:00 PM 8.3 46.94 0.037 6.62 1.6 11.46
10/20/2022 8:15:00 PM 8.27 46.886 0.037 6.62 1.61 11.46
10/20/2022 8:30:00 PM 8.23 46.814 0.037 6.62 1.63 11.48
10/20/2022 8:45:00 PM 8.19 46.742 0.037 6.64 1.61 11.49
10/20/2022 9:00:00 PM 8.15 46.67 0.037 6.67 1.61 11.5
10/20/2022 9:15:00 PM 8.11 46.598 0.037 6.62 1.61 11.52
10/20/2022 9:30:00 PM 8.08 46.544 0.037 6.61 1.6 11.53
10/20/2022 9:45:00 PM 8.04 46.472 0.037 6.62 1.67 11.55
10/20/2022 10:00:00 PM 8.01 46.418 0.037 6.67 1.62 11.55
10/20/2022 10:15:00 PM 7.98 46.364 0.037 6.66 1.65 11.57
10/20/2022 10:30:00 PM 7.95 46.31 0.037 6.63 1.63 11.58
10/20/2022 10:45:00 PM 7.91 46.238 0.037 6.6 1.62 11.58
10/20/2022 11:00:00 PM 7.87 46.166 0.037 6.66 1.66 11.61
10/20/2022 11:15:00 PM 7.82 46.076 0.037 6.67 1.69 11.62
10/20/2022 11:30:00 PM 7.78 46.004 0.037 6.62 1.57 11.63
10/20/2022 11:45:00 PM 7.74 45.932 0.037 6.61 1.6 11.65
10/21/2022 12:00:00 AM 7.71 45.878 0.037 6.64 1.68 11.65
10/21/2022 12:15:00 AM 7.68 45.824 0.037 6.6 1.6 11.68
10/21/2022 12:30:00 AM 7.66 45.788 0.037 6.62 1.63 11.69
10/21/2022 12:45:00 AM 7.64 45.752 0.037 6.61 1.64 11.69
10/21/2022 1:00:00 AM 7.62 45.716 0.037 6.63 1.63 11.71
10/21/2022 1:15:00 AM 7.59 45.662 0.038 6.6 1.62 11.72
10/21/2022 1:30:00 AM 7.57 45.626 0.037 6.58 1.67 11.73
10/21/2022 1:45:00 AM 7.56 45.608 0.037 6.58 1.64 11.74
10/21/2022 2:00:00 AM 7.54 45.572 0.037 6.59 1.62 11.73
10/21/2022 2:15:00 AM 7.51 45.518 0.037 6.61 1.68 11.75
10/21/2022 2:30:00 AM 7.47 45.446 0.037 6.6 1.62 11.76
10/21/2022 2:45:00 AM 7.44 45.392 0.037 6.6 1.65 11.78
10/21/2022 3:00:00 AM 7.39 45.302 0.037 6.59 1.66 11.79
10/21/2022 3:15:00 AM 7.34 45.212 0.037 6.58 1.64 11.8
10/21/2022 3:30:00 AM 7.29 45.122 0.037 6.58 1.6 11.82
10/21/2022 3:45:00 AM 7.24 45.032 0.037 6.58 1.6 11.83
10/21/2022 4:00:00 AM 7.2 44.96 0.037 6.59 1.62 11.84
10/21/2022 4:15:00 AM 7.15 44.87 0.037 6.58 1.66 11.86
10/21/2022 4:30:00 AM 7.1 44.78 0.037 6.58 1.61 11.87
10/21/2022 4:45:00 AM 7.05 44.69 0.037 6.57 1.74 11.89
10/21/2022 5:00:00 AM 6.99 44.582 0.037 6.57 1.6 11.91
10/21/2022 5:15:00 AM 6.94 44.492 0.037 6.59 1.6 11.92
10/21/2022 5:30:00 AM 6.89 44.402 0.037 6.58 1.61 11.95
10/21/2022 5:45:00 AM 6.85 44.33 0.037 6.57 1.68 11.97
10/21/2022 6:00:00 AM 6.8 44.24 0.037 6.57 1.69 11.98
10/21/2022 6:15:00 AM 6.75 44.15 0.038 6.56 1.58 12
10/21/2022 6:30:00 AM 6.71 44.078 0.037 6.55 1.6 12.02
10/21/2022 6:45:00 AM 6.66 43.988 0.037 6.57 1.6 12.04
10/21/2022 7:00:00 AM 6.62 43.916 0.038 6.57 1.65 12.05
10/21/2022 7:15:00 AM 6.58 43.844 0.037 6.61 1.59 12.07
10/21/2022 7:30:00 AM 6.54 43.772 0.037 6.57 1.74 12.1
10/21/2022 7:45:00 AM 6.5 43.7 0.037 6.57 1.6 12.14
10/21/2022 8:00:00 AM 6.46 43.628 0.037 6.56 1.63 12.21
10/21/2022 8:15:00 AM 6.43 43.574 0.037 6.58 1.64 12.26
10/21/2022 8:30:00 AM 6.41 43.538 0.037 6.6 1.63 12.32
10/21/2022 8:45:00 AM 6.39 43.502 0.037 6.61 1.63 12.37
10/21/2022 9:00:00 AM 6.38 43.484 0.037 6.62 1.63 12.4
10/21/2022 9:15:00 AM 6.38 43.484 0.037 6.64 1.75 12.45
10/21/2022 9:30:00 AM 6.38 43.484 0.037 6.64 1.6 12.48
10/21/2022 9:45:00 AM 6.4 43.52 0.037 6.7 1.64 12.51
10/21/2022 10:00:00 AM 6.42 43.556 0.037 6.68 1.69 12.52
10/21/2022 10:15:00 AM 6.47 43.646 0.037 6.68 1.73 12.54
10/21/2022 10:30:00 AM 6.53 43.754 0.037 6.68 1.61 12.55
10/21/2022 10:45:00 AM 6.62 43.916 0.037 6.73 1.6 12.55
10/21/2022 11:00:00 AM 6.73 44.114 0.037 6.71 1.61 12.55
10/21/2022 11:15:00 AM 6.84 44.312 0.037 6.72 1.64 12.53
10/21/2022 11:30:00 AM 7 44.6 0.037 6.7 1.61 12.5
10/21/2022 11:45:00 AM 7.19 44.942 0.037 6.75 1.57 12.48
10/21/2022 12:00:00 PM 7.41 45.338 0.037 6.76 1.58 12.43
10/21/2022 12:15:00 PM 7.64 45.752 0.037 6.74 1.54 12.38
10/21/2022 12:30:00 PM 7.89 46.202 0.037 6.77 1.59 12.32
10/21/2022 12:45:00 PM 8.12 46.616 0.037 6.75 1.56 12.27
10/21/2022 1:00:00 PM 8.35 47.03 0.037 6.75 1.55 12.21
10/21/2022 1:15:00 PM 8.56 47.408 0.037 6.8 1.64 12.15
10/21/2022 1:30:00 PM 8.73 47.714 0.037 6.76 1.62 12.1
10/21/2022 1:45:00 PM 8.87 47.966 0.037 6.77 1.56 12.05
10/21/2022 2:00:00 PM 9 48.2 0.037 6.76 1.52 12.02
10/21/2022 2:15:00 PM 9.07 48.326 0.037 6.75 1.54 11.99
10/21/2022 2:30:00 PM 9.14 48.452 0.037 6.76 1.59 11.95
10/21/2022 2:45:00 PM 9.19 48.542 0.037 6.77 1.56 11.92
10/21/2022 3:00:00 PM 9.22 48.596 0.037 6.82 1.58 11.9
10/21/2022 3:15:00 PM 9.23 48.614 0.037 6.76 3.25 11.88
10/21/2022 3:30:00 PM 9.21 48.578 0.037 6.77 1.56 11.87
10/21/2022 3:45:00 PM 9.17 48.506 0.037 6.76 1.54 11.85
10/21/2022 4:00:00 PM 9.12 48.416 0.037 6.77 1.57 11.84
10/21/2022 4:15:00 PM 9.06 48.308 0.037 6.77 1.53 11.84
10/21/2022 4:30:00 PM 9 48.2 0.037 6.75 1.58 11.84
10/21/2022 4:45:00 PM 8.93 48.074 0.037 6.77 1.64 11.82
10/21/2022 5:00:00 PM 8.86 47.948 0.037 6.75 1.51 11.8
10/21/2022 5:15:00 PM 8.78 47.804 0.037 6.75 1.59 11.78
10/21/2022 5:30:00 PM 8.68 47.624 0.037 6.76 1.51 11.76
10/21/2022 5:45:00 PM 8.61 47.498 0.037 6.7 1.59 11.75
10/21/2022 6:00:00 PM 8.53 47.354 0.037 6.69 1.58 11.72
10/21/2022 6:15:00 PM 8.46 47.228 0.037 6.73 1.58 11.68
10/21/2022 6:30:00 PM 8.4 47.12 0.037 6.68 1.58 11.64
10/21/2022 6:45:00 PM 8.36 47.048 0.038 6.67 1.62 11.6
10/21/2022 7:00:00 PM 8.32 46.976 0.038 6.71 1.57 11.58
10/21/2022 7:15:00 PM 8.3 46.94 0.038 6.65 1.59 11.57
10/21/2022 7:30:00 PM 8.27 46.886 0.038 6.7 1.65 11.56
10/21/2022 7:45:00 PM 8.25 46.85 0.038 6.66 1.65 11.56
10/21/2022 8:00:00 PM 8.23 46.814 0.038 6.64 1.72 11.55
10/21/2022 8:15:00 PM 8.22 46.796 0.038 6.61 1.64 11.55
10/21/2022 8:30:00 PM 8.2 46.76 0.038 6.63 1.61 11.56
10/21/2022 8:45:00 PM 8.17 46.706 0.038 6.64 1.65 11.56
10/21/2022 9:00:00 PM 8.15 46.67 0.038 6.66 1.62 11.57
10/21/2022 9:15:00 PM 8.12 46.616 0.038 6.63 1.66 11.58
10/21/2022 9:30:00 PM 8.09 46.562 0.038 6.65 1.61 11.59
10/21/2022 9:45:00 PM 8.06 46.508 0.038 6.63 1.67 11.61
10/21/2022 10:00:00 PM 8.02 46.436 0.038 6.64 1.65 11.61
10/21/2022 10:15:00 PM 7.98 46.364 0.038 6.64 1.65 11.62
10/21/2022 10:30:00 PM 7.95 46.31 0.038 6.67 1.6 11.63
10/21/2022 10:45:00 PM 7.91 46.238 0.038 6.63 1.66 11.65
10/21/2022 11:00:00 PM 7.88 46.184 0.038 6.67 1.58 11.66
10/21/2022 11:15:00 PM 7.84 46.112 0.038 6.63 1.62 11.68
10/21/2022 11:30:00 PM 7.81 46.058 0.038 6.62 1.65 11.68
10/21/2022 11:45:00 PM 7.77 45.986 0.038 6.62 1.62 11.68
10/22/2022 12:00:00 AM 7.74 45.932 0.038 6.64 1.58 11.7
10/22/2022 12:15:00 AM 7.71 45.878 0.038 6.65 1.68 11.72
10/22/2022 12:30:00 AM 7.67 45.806 0.038 6.67 1.62 11.73
10/22/2022 12:45:00 AM 7.64 45.752 0.038 6.64 1.61 11.73
10/22/2022 1:00:00 AM 7.61 45.698 0.038 6.63 1.61 11.74
10/22/2022 1:15:00 AM 7.58 45.644 0.038 6.67 1.62 11.76
10/22/2022 1:30:00 AM 7.53 45.554 0.038 6.63 1.88 11.78
10/22/2022 1:45:00 AM 7.5 45.5 0.038 6.6 1.63 11.78
10/22/2022 2:00:00 AM 7.46 45.428 0.038 6.61 1.7 11.8
10/22/2022 2:15:00 AM 7.42 45.356 0.038 6.62 1.78 11.81
10/22/2022 2:30:00 AM 7.38 45.284 0.038 6.62 1.59 11.83
10/22/2022 2:45:00 AM 7.34 45.212 0.038 6.62 1.59 11.84
10/22/2022 3:00:00 AM 7.3 45.14 0.038 6.61 1.59 11.85
10/22/2022 3:15:00 AM 7.26 45.068 0.038 6.63 1.63 11.86
10/22/2022 3:30:00 AM 7.22 44.996 0.038 6.62 1.56 11.88
10/22/2022 3:45:00 AM 7.17 44.906 0.038 6.67 1.63 11.9
10/22/2022 4:00:00 AM 7.13 44.834 0.038 6.51 1.61 11.91
10/22/2022 4:15:00 AM 7.09 44.762 0.038 6.62 1.6 11.93
10/22/2022 4:30:00 AM 7.05 44.69 0.038 6.63 1.68 11.94
10/22/2022 4:45:00 AM 7.01 44.618 0.038 6.62 1.62 11.96
10/22/2022 5:00:00 AM 6.97 44.546 0.038 6.67 1.66 11.97
10/22/2022 5:15:00 AM 6.93 44.474 0.038 6.66 1.62 11.98
10/22/2022 5:30:00 AM 6.9 44.42 0.038 6.62 1.7 11.99
10/22/2022 5:45:00 AM 6.86 44.348 0.038 6.6 1.61 12.02
10/22/2022 6:00:00 AM 6.82 44.276 0.038 6.65 1.67 12.03
10/22/2022 6:15:00 AM 6.79 44.222 0.038 6.6 1.6 12.04
10/22/2022 6:30:00 AM 6.75 44.15 0.038 6.65 1.62 12.06
10/22/2022 6:45:00 AM 6.72 44.096 0.038 6.62 1.63 12.06
10/22/2022 7:00:00 AM 6.68 44.024 0.038 6.61 1.66 12.08
10/22/2022 7:15:00 AM 6.65 43.97 0.038 6.64 1.6 12.09
10/22/2022 7:30:00 AM 6.61 43.898 0.038 6.6 1.64 12.13
10/22/2022 7:45:00 AM 6.58 43.844 0.038 6.61 1.68 12.17
10/22/2022 8:00:00 AM 6.56 43.808 0.038 6.56 1.59 12.23
10/22/2022 8:15:00 AM 6.54 43.772 0.038 6.61 1.59 12.28
10/22/2022 8:30:00 AM 6.52 43.736 0.038 6.64 1.61 12.34
10/22/2022 8:45:00 AM 6.5 43.7 0.038 6.62 1.62 12.39
10/22/2022 9:00:00 AM 6.5 43.7 0.038 6.62 1.68 12.44
10/22/2022 9:15:00 AM 6.51 43.718 0.038 6.66 1.63 12.48
10/22/2022 9:30:00 AM 6.54 43.772 0.038 6.66 1.63 12.51
10/22/2022 9:45:00 AM 6.56 43.808 0.038 6.67 1.57 12.53
10/22/2022 10:00:00 AM 6.61 43.898 0.038 6.65 1.67 12.54
10/22/2022 10:15:00 AM 6.66 43.988 0.038 6.68 1.59 12.55
10/22/2022 10:30:00 AM 6.73 44.114 0.038 6.7 1.6 12.55
10/22/2022 10:45:00 AM 6.84 44.312 0.038 6.7 1.61 12.56
10/22/2022 11:00:00 AM 6.95 44.51 0.038 6.75 1.57 12.55
10/22/2022 11:15:00 AM 7.08 44.744 0.038 6.72 1.66 12.53
10/22/2022 11:30:00 AM 7.26 45.068 0.038 6.72 1.57 12.49
10/22/2022 11:45:00 AM 7.47 45.446 0.038 6.73 1.56 12.46
10/22/2022 12:00:00 PM 7.71 45.878 0.038 6.75 1.62 12.41
10/22/2022 12:15:00 PM 7.97 46.346 0.037 6.74 1.53 12.35
10/22/2022 12:30:00 PM 8.25 46.85 0.038 6.75 1.56 12.3
10/22/2022 12:45:00 PM 8.51 47.318 0.038 6.75 1.59 12.23
10/22/2022 1:00:00 PM 8.76 47.768 0.037 6.78 1.64 12.16
10/22/2022 1:15:00 PM 9.01 48.218 0.037 6.78 1.6 12.1
10/22/2022 1:30:00 PM 9.22 48.596 0.037 6.82 1.55 12.03
10/22/2022 1:45:00 PM 9.39 48.902 0.037 6.78 1.59 11.98
10/22/2022 2:00:00 PM 9.55 49.19 0.037 6.78 1.51 11.94
10/22/2022 2:15:00 PM 9.67 49.406 0.037 6.83 1.61 11.9
10/22/2022 2:30:00 PM 9.76 49.568 0.038 6.8 1.61 11.86
10/22/2022 2:45:00 PM 9.83 49.694 0.038 6.83 1.56 11.83
10/22/2022 3:00:00 PM 9.87 49.766 0.037 6.81 1.51 11.8
10/22/2022 3:15:00 PM 9.89 49.802 0.038 6.84 1.51 11.78
10/22/2022 3:30:00 PM 9.89 49.802 0.038 6.79 1.54 11.76
10/22/2022 3:45:00 PM 9.86 49.748 0.038 6.79 1.54 11.75
10/22/2022 4:00:00 PM 9.82 49.676 0.038 6.78 1.6 11.73
10/22/2022 4:15:00 PM 9.77 49.586 0.038 6.79 1.56 11.72
10/22/2022 4:30:00 PM 9.71 49.478 0.038 6.79 1.51 11.71
10/22/2022 4:45:00 PM 9.64 49.352 0.038 6.82 1.59 11.69
10/22/2022 5:00:00 PM 9.56 49.208 0.038 6.77 1.55 11.66
10/22/2022 5:15:00 PM 9.49 49.082 0.038 6.76 1.55 11.65
10/22/2022 5:30:00 PM 9.4 48.92 0.038 6.79 1.6 11.63
10/22/2022 5:45:00 PM 9.31 48.758 0.038 6.73 1.56 11.61
10/22/2022 6:00:00 PM 9.21 48.578 0.038 6.73 1.55 11.58
10/22/2022 6:15:00 PM 9.13 48.434 0.038 6.71 1.56 11.54
10/22/2022 6:30:00 PM 9.06 48.308 0.038 6.7 1.61 11.49
10/22/2022 6:45:00 PM 9.01 48.218 0.038 6.68 1.55 11.47
10/22/2022 7:00:00 PM 8.96 48.128 0.038 6.68 1.66 11.44
10/22/2022 7:15:00 PM 8.93 48.074 0.038 6.68 1.56 11.43
10/22/2022 7:30:00 PM 8.91 48.038 0.038 6.66 1.54 11.42
10/22/2022 7:45:00 PM 8.89 48.002 0.039 6.66 1.6 11.42
10/22/2022 8:00:00 PM 8.87 47.966 0.039 6.63 1.56 11.42
10/22/2022 8:15:00 PM 8.86 47.948 0.039 6.62 1.75 11.41
10/22/2022 8:30:00 PM 8.84 47.912 0.039 6.62 1.63 11.41
10/22/2022 8:45:00 PM 8.82 47.876 0.039 6.64 1.66 11.42
10/22/2022 9:00:00 PM 8.8 47.84 0.039 6.69 1.61 11.42
10/22/2022 9:15:00 PM 8.78 47.804 0.039 6.64 1.6 11.42
10/22/2022 9:30:00 PM 8.76 47.768 0.039 6.65 1.67 11.43
10/22/2022 9:45:00 PM 8.74 47.732 0.039 6.69 1.59 11.43
10/22/2022 10:00:00 PM 8.71 47.678 0.039 6.63 1.66 11.44
10/22/2022 10:15:00 PM 8.69 47.642 0.039 6.64 1.63 11.45
10/22/2022 10:30:00 PM 8.66 47.588 0.039 6.64 1.66 11.46
10/22/2022 10:45:00 PM 8.63 47.534 0.039 6.62 1.62 11.47
10/22/2022 11:00:00 PM 8.6 47.48 0.039 6.65 1.63 11.48
10/22/2022 11:15:00 PM 8.57 47.426 0.039 6.62 1.66 11.49
10/22/2022 11:30:00 PM 8.54 47.372 0.039 6.68 1.62 11.51
10/22/2022 11:45:00 PM 8.51 47.318 0.039 6.65 1.61 11.51
10/23/2022 12:00:00 AM 8.49 47.282 0.039 6.63 1.65 11.52
10/23/2022 12:15:00 AM 8.46 47.228 0.039 6.62 1.62 11.53
10/23/2022 12:30:00 AM 8.43 47.174 0.039 6.66 1.64 11.53
10/23/2022 12:45:00 AM 8.4 47.12 0.039 6.64 1.59 11.54
10/23/2022 1:00:00 AM 8.37 47.066 0.039 6.67 1.66 11.55
10/23/2022 1:15:00 AM 8.34 47.012 0.039 6.61 1.66 11.57
10/23/2022 1:30:00 AM 8.31 46.958 0.039 6.63 1.62 11.58
10/23/2022 1:45:00 AM 8.27 46.886 0.039 6.63 1.79 11.59
10/23/2022 2:00:00 AM 8.24 46.832 0.039 6.62 1.62 11.6
10/23/2022 2:15:00 AM 8.2 46.76 0.039 6.62 1.64 11.61
10/23/2022 2:30:00 AM 8.16 46.688 0.039 6.67 1.68 11.63
10/23/2022 2:45:00 AM 8.12 46.616 0.039 6.63 1.65 11.64
10/23/2022 3:00:00 AM 8.07 46.526 0.039 6.61 1.63 11.65
10/23/2022 3:15:00 AM 8.03 46.454 0.039 6.65 1.62 11.67
10/23/2022 3:30:00 AM 7.99 46.382 0.039 6.62 1.59 11.68
10/23/2022 3:45:00 AM 7.95 46.31 0.039 6.65 1.69 11.69
10/23/2022 4:00:00 AM 7.9 46.22 0.039 6.61 1.64 11.71
10/23/2022 4:15:00 AM 7.86 46.148 0.039 6.65 1.6 11.72
10/23/2022 4:30:00 AM 7.81 46.058 0.039 6.62 1.66 11.74
10/23/2022 4:45:00 AM 7.77 45.986 0.039 6.67 1.64 11.76
10/23/2022 5:00:00 AM 7.72 45.896 0.039 6.66 1.63 11.76
10/23/2022 5:15:00 AM 7.68 45.824 0.039 6.63 1.66 11.77
10/23/2022 5:30:00 AM 7.63 45.734 0.039 6.63 1.64 11.8
10/23/2022 5:45:00 AM 7.59 45.662 0.039 6.68 1.69 11.81
10/23/2022 6:00:00 AM 7.55 45.59 0.039 6.64 1.64 11.82
10/23/2022 6:15:00 AM 7.52 45.536 0.039 6.63 1.63 11.84
10/23/2022 6:30:00 AM 7.48 45.464 0.039 6.62 1.58 11.85
10/23/2022 6:45:00 AM 7.44 45.392 0.039 6.63 1.62 11.87
10/23/2022 7:00:00 AM 7.41 45.338 0.039 6.61 1.62 11.88
10/23/2022 7:15:00 AM 7.37 45.266 0.039 6.61 1.61 11.89
10/23/2022 7:30:00 AM 7.34 45.212 0.039 6.63 1.63 11.9
10/23/2022 7:45:00 AM 7.31 45.158 0.039 6.65 1.64 11.95
10/23/2022 8:00:00 AM 7.29 45.122 0.039 6.61 1.67 12
10/23/2022 8:15:00 AM 7.28 45.104 0.039 6.67 1.72 12.09
10/23/2022 8:30:00 AM 7.27 45.086 0.039 6.69 1.68 12.17
10/23/2022 8:45:00 AM 7.29 45.122 0.039 6.7 1.63 12.24
10/23/2022 9:00:00 AM 7.31 45.158 0.039 6.68 1.67 12.3
10/23/2022 9:15:00 AM 7.34 45.212 0.039 6.67 1.63 12.35
10/23/2022 9:30:00 AM 7.37 45.266 0.039 6.71 1.59 12.39
10/23/2022 9:45:00 AM 7.4 45.32 0.039 6.75 1.58 12.42
10/23/2022 10:00:00 AM 7.44 45.392 0.038 6.71 1.56 12.43
10/23/2022 10:15:00 AM 7.49 45.482 0.039 6.71 1.6 12.44
10/23/2022 10:30:00 AM 7.56 45.608 0.038 6.74 1.64 12.45
10/23/2022 10:45:00 AM 7.64 45.752 0.038 6.74 1.58 12.45
10/23/2022 11:00:00 AM 7.72 45.896 0.038 6.77 1.9 12.45
10/23/2022 11:15:00 AM 7.81 46.058 0.038 6.76 1.63 12.44
10/23/2022 11:30:00 AM 7.91 46.238 0.038 6.81 1.6 12.42
10/23/2022 11:45:00 AM 8.04 46.472 0.038 6.78 1.58 12.4
10/23/2022 12:00:00 PM 8.18 46.724 0.038 6.79 1.56 12.38
10/23/2022 12:15:00 PM 8.3 46.94 0.038 6.78 1.54 12.35
10/23/2022 12:30:00 PM 8.43 47.174 0.038 6.83 1.57 12.31
10/23/2022 12:45:00 PM 8.59 47.462 0.038 6.83 1.59 12.29
10/23/2022 1:00:00 PM 8.76 47.768 0.038 6.84 1.6 12.25
10/23/2022 1:15:00 PM 8.88 47.984 0.038 6.82 1.59 12.2
10/23/2022 1:30:00 PM 9 48.2 0.038 6.82 1.55 12.15
10/23/2022 1:45:00 PM 9.09 48.362 0.038 6.79 1.58 12.11
10/23/2022 2:00:00 PM 9.16 48.488 0.038 6.85 1.63 12.06
10/23/2022 2:15:00 PM 9.22 48.596 0.038 6.79 1.56 12.03
10/23/2022 2:30:00 PM 9.3 48.74 0.038 6.85 1.54 12.01
10/23/2022 2:45:00 PM 9.37 48.866 0.038 6.8 1.53 11.99
10/23/2022 3:00:00 PM 9.45 49.01 0.038 6.81 1.54 11.95
10/23/2022 3:15:00 PM 9.49 49.082 0.038 6.81 1.61 11.9
10/23/2022 3:30:00 PM 9.52 49.136 0.038 6.81 1.7 11.86
10/23/2022 3:45:00 PM 9.55 49.19 0.038 6.78 1.55 11.82
10/23/2022 4:00:00 PM 9.55 49.19 0.038 6.78 1.6 11.75
10/23/2022 4:15:00 PM 9.56 49.208 0.038 6.78 1.72 11.71
10/23/2022 4:30:00 PM 9.56 49.208 0.039 6.76 1.76 11.67
10/23/2022 4:45:00 PM 9.57 49.226 0.038 6.77 1.64 11.65
10/23/2022 5:00:00 PM 9.59 49.262 0.039 6.73 1.7 11.61
10/23/2022 5:15:00 PM 9.59 49.262 0.038 6.74 1.79 11.56
10/23/2022 5:30:00 PM 9.6 49.28 0.039 6.74 1.68 11.52
10/23/2022 5:45:00 PM 9.61 49.298 0.039 6.7 1.7 11.48
10/23/2022 6:00:00 PM 9.61 49.298 0.039 6.7 1.7 11.42
10/23/2022 6:15:00 PM 9.61 49.298 0.039 6.71 1.71 11.37
10/23/2022 6:30:00 PM 9.6 49.28 0.039 6.71 1.69 11.33
10/23/2022 6:45:00 PM 9.6 49.28 0.039 6.66 1.63 11.28
10/23/2022 7:00:00 PM 9.6 49.28 0.039 6.67 1.69 11.26
10/23/2022 7:15:00 PM 9.61 49.298 0.039 6.66 1.61 11.24
10/23/2022 7:30:00 PM 9.61 49.298 0.039 6.63 1.68 11.23
10/23/2022 7:45:00 PM 9.61 49.298 0.039 6.64 1.72 11.21
10/23/2022 8:00:00 PM 9.62 49.316 0.039 6.62 1.75 11.2
10/23/2022 8:15:00 PM 9.63 49.334 0.039 6.65 1.65 11.2
10/23/2022 8:30:00 PM 9.63 49.334 0.039 6.62 1.71 11.19
10/23/2022 8:45:00 PM 9.64 49.352 0.039 6.63 1.63 11.19
10/23/2022 9:00:00 PM 9.64 49.352 0.039 6.6 1.64 11.19
10/23/2022 9:15:00 PM 9.65 49.37 0.039 6.63 1.58 11.18
10/23/2022 9:30:00 PM 9.65 49.37 0.039 6.61 1.57 11.18
10/23/2022 9:45:00 PM 9.66 49.388 0.04 6.6 1.63 11.17
10/23/2022 10:00:00 PM 9.66 49.388 0.039 6.6 1.61 11.17
10/23/2022 10:15:00 PM 9.67 49.406 0.04 6.59 1.64 11.17
10/23/2022 10:30:00 PM 9.67 49.406 0.04 6.6 1.57 11.17
10/23/2022 10:45:00 PM 9.68 49.424 0.04 6.6 1.7 11.16
10/23/2022 11:00:00 PM 9.67 49.406 0.04 6.59 1.58 11.16
10/23/2022 11:15:00 PM 9.68 49.424 0.04 6.65 1.78 11.16
10/23/2022 11:30:00 PM 9.68 49.424 0.04 6.6 1.58 11.16
10/23/2022 11:45:00 PM 9.69 49.442 0.04 6.65 1.58 11.15
10/24/2022 12:00:00 AM 9.69 49.442 0.04 6.62 1.63 11.15
10/24/2022 12:15:00 AM 9.7 49.46 0.04 6.61 1.64 11.16
10/24/2022 12:30:00 AM 9.7 49.46 0.04 6.6 1.6 11.15
10/24/2022 12:45:00 AM 9.71 49.478 0.04 6.59 1.58 11.14
10/24/2022 1:00:00 AM 9.72 49.496 0.04 6.59 1.58 11.14
10/24/2022 1:15:00 AM 9.72 49.496 0.04 6.61 1.7 11.15
10/24/2022 1:30:00 AM 9.73 49.514 0.04 6.6 1.63 11.14
10/24/2022 1:45:00 AM 9.74 49.532 0.04 6.61 1.62 11.14
10/24/2022 2:00:00 AM 9.75 49.55 0.04 6.66 1.57 11.13
10/24/2022 2:15:00 AM 9.76 49.568 0.04 6.61 1.62 11.14
10/24/2022 2:30:00 AM 9.77 49.586 0.04 6.6 1.63 11.13
10/24/2022 2:45:00 AM 9.78 49.604 0.04 6.62 1.6 11.13
10/24/2022 3:00:00 AM 9.79 49.622 0.04 6.67 1.6 11.13
10/24/2022 3:15:00 AM 9.79 49.622 0.04 6.63 1.58 11.13
10/24/2022 3:30:00 AM 9.8 49.64 0.04 6.62 1.66 11.13
10/24/2022 3:45:00 AM 9.82 49.676 0.039 6.63 1.62 11.14
10/24/2022 4:00:00 AM 9.83 49.694 0.039 6.63 1.72 11.13
10/24/2022 4:15:00 AM 9.83 49.694 0.039 6.64 1.62 11.12
10/24/2022 4:30:00 AM 9.84 49.712 0.039 6.68 1.63 11.12
10/24/2022 4:45:00 AM 9.85 49.73 0.039 6.64 1.75 11.1
10/24/2022 5:00:00 AM 9.85 49.73 0.039 6.64 1.69 11.11
10/24/2022 5:15:00 AM 9.85 49.73 0.039 6.63 1.73 11.1
10/24/2022 5:30:00 AM 9.85 49.73 0.04 6.68 1.69 11.1
10/24/2022 5:45:00 AM 9.85 49.73 0.04 6.65 1.67 11.09
10/24/2022 6:00:00 AM 9.85 49.73 0.04 6.65 1.72 11.09
10/24/2022 6:15:00 AM 9.85 49.73 0.04 6.65 1.69 11.1
10/24/2022 6:30:00 AM 9.85 49.73 0.04 6.64 1.72 11.1
10/24/2022 6:45:00 AM 9.84 49.712 0.041 6.64 1.67 11.09
10/24/2022 7:00:00 AM 9.84 49.712 0.041 6.65 1.73 11.1
10/24/2022 7:15:00 AM 9.84 49.712 0.042 6.65 1.91 11.11
10/24/2022 7:30:00 AM 9.84 49.712 0.043 6.67 2.31 11.11
10/24/2022 7:45:00 AM 9.84 49.712 0.043 6.68 3.27 11.12
10/24/2022 8:00:00 AM 9.85 49.73 0.044 6.68 3.75 11.14
10/24/2022 8:15:00 AM 9.85 49.73 0.044 6.71 3.76 11.18
10/24/2022 8:30:00 AM 9.86 49.748 0.047 6.73 3.7 11.23
10/24/2022 8:45:00 AM 9.88 49.784 0.047 6.74 3.43 11.35
10/24/2022 9:00:00 AM 9.91 49.838 0.047 6.75 3.31 11.42
10/24/2022 9:15:00 AM 9.94 49.892 0.047 6.82 2.92 11.45
10/24/2022 9:30:00 AM 9.97 49.946 0.047 6.79 2.7 11.47
10/24/2022 9:45:00 AM 10.01 50.018 0.047 6.79 3.82 11.5
10/24/2022 10:00:00 AM 10.05 50.09 0.046 6.8 2.39 11.56
10/24/2022 10:15:00 AM 10.12 50.216 0.045 6.82 2.25 11.6
10/24/2022 10:30:00 AM 10.17 50.306 0.045 6.83 2.17 11.6
10/24/2022 10:45:00 AM 10.23 50.414 0.045 6.83 2.13 11.6
10/24/2022 11:00:00 AM 10.26 50.468 0.045 6.85 2.06 11.56
10/24/2022 11:15:00 AM 10.32 50.576 0.045 6.9 2.04 11.58
10/24/2022 11:30:00 AM 10.36 50.648 0.044 6.91 2.11 11.57
10/24/2022 11:45:00 AM 10.38 50.684 0.044 6.87 2.16 11.55
10/24/2022 12:00:00 PM 10.43 50.774 0.043 6.87 2.12 11.56
10/24/2022 12:15:00 PM 10.54 50.972 0.043 6.87 2.19 11.6
10/24/2022 12:30:00 PM 10.64 51.152 0.043 6.87 2.24 11.6
10/24/2022 12:45:00 PM 10.73 51.314 0.043 6.89 2.2 11.6
10/24/2022 1:00:00 PM 10.82 51.476 0.043 6.9 2.06 11.58
10/24/2022 1:15:00 PM 10.89 51.602 0.042 6.88 2.03 11.54
10/24/2022 1:30:00 PM 10.97 51.746 0.042 6.89 1.96 11.54
10/24/2022 1:45:00 PM 11.03 51.854 0.042 6.92 2 11.5
10/24/2022 2:00:00 PM 11.07 51.926 0.042 6.89 1.99 11.46
10/24/2022 2:15:00 PM 11.11 51.998 0.041 6.88 1.88 11.41
10/24/2022 2:30:00 PM 11.15 52.07 0.041 6.87 1.9 11.38
10/24/2022 2:45:00 PM 11.19 52.142 0.041 6.87 1.81 11.39
10/24/2022 3:00:00 PM 11.21 52.178 0.041 6.87 1.86 11.34
10/24/2022 3:15:00 PM 11.23 52.214 0.04 6.86 1.93 11.33
10/24/2022 3:30:00 PM 11.25 52.25 0.04 6.85 1.9 11.3
10/24/2022 3:45:00 PM 11.26 52.268 0.04 6.84 2.04 11.29
10/24/2022 4:00:00 PM 11.27 52.286 0.04 6.82 1.91 11.27
10/24/2022 4:15:00 PM 11.28 52.304 0.04 6.86 1.99 11.25
10/24/2022 4:30:00 PM 11.29 52.322 0.039 6.84 1.93 11.22
10/24/2022 4:45:00 PM 11.3 52.34 0.039 6.81 1.87 11.16
10/24/2022 5:00:00 PM 11.3 52.34 0.039 6.79 1.83 11.09
10/24/2022 5:15:00 PM 11.31 52.358 0.039 6.82 1.83 11.03
10/24/2022 5:30:00 PM 11.31 52.358 0.039 6.77 1.99 10.99
10/24/2022 5:45:00 PM 11.3 52.34 0.039 6.75 2.05 10.94
10/24/2022 6:00:00 PM 11.29 52.322 0.039 6.75 1.82 10.89
10/24/2022 6:15:00 PM 11.28 52.304 0.039 6.72 1.82 10.85
10/24/2022 6:30:00 PM 11.26 52.268 0.039 6.72 1.85 10.82
10/24/2022 6:45:00 PM 11.24 52.232 0.04 6.72 1.87 10.79
10/24/2022 7:00:00 PM 11.23 52.214 0.039 6.67 1.86 10.79
10/24/2022 7:15:00 PM 11.21 52.178 0.039 6.66 1.81 10.77
10/24/2022 7:30:00 PM 11.2 52.16 0.039 6.69 1.91 10.76
10/24/2022 7:45:00 PM 11.19 52.142 0.04 6.65 1.87 10.76
10/24/2022 8:00:00 PM 11.18 52.124 0.039 6.63 1.92 10.77
10/24/2022 8:15:00 PM 11.17 52.106 0.039 6.63 1.89 10.76
10/24/2022 8:30:00 PM 11.17 52.106 0.039 6.62 1.93 10.76
10/24/2022 8:45:00 PM 11.16 52.088 0.039 6.61 1.83 10.76
10/24/2022 9:00:00 PM 11.16 52.088 0.039 6.66 1.82 10.76
10/24/2022 9:15:00 PM 11.15 52.07 0.039 6.63 1.92 10.76
10/24/2022 9:30:00 PM 11.15 52.07 0.039 6.61 2.05 10.76
10/24/2022 9:45:00 PM 11.14 52.052 0.04 6.59 1.84 10.76
10/24/2022 10:00:00 PM 11.14 52.052 0.04 6.59 1.78 10.76
10/24/2022 10:15:00 PM 11.14 52.052 0.04 6.61 1.88 10.76
10/24/2022 10:30:00 PM 11.14 52.052 0.04 6.6 1.78 10.76
10/24/2022 10:45:00 PM 11.13 52.034 0.04 6.6 1.76 10.76
10/24/2022 11:00:00 PM 11.13 52.034 0.04 6.59 1.7 10.75
10/24/2022 11:15:00 PM 11.13 52.034 0.04 6.59 1.91 10.75
10/24/2022 11:30:00 PM 11.12 52.016 0.04 6.6 1.82 10.75
10/24/2022 11:45:00 PM 11.12 52.016 0.04 6.58 1.77 10.75
10/25/2022 12:00:00 AM 11.12 52.016 0.04 6.59 1.84 10.76
10/25/2022 12:15:00 AM 11.11 51.998 0.04 6.6 1.82 10.75
10/25/2022 12:30:00 AM 11.11 51.998 0.04 6.64 1.88 10.76
10/25/2022 12:45:00 AM 11.1 51.98 0.04 6.59 1.79 10.75
10/25/2022 1:00:00 AM 11.1 51.98 0.04 6.59 1.82 10.75
10/25/2022 1:15:00 AM 11.09 51.962 0.04 6.63 1.91 10.75
10/25/2022 1:30:00 AM 11.08 51.944 0.04 6.59 1.81 10.75
10/25/2022 1:45:00 AM 11.08 51.944 0.04 6.56 1.78 10.75
10/25/2022 2:00:00 AM 11.07 51.926 0.04 6.59 1.79 10.75
10/25/2022 2:15:00 AM 11.07 51.926 0.04 6.59 1.86 10.76
10/25/2022 2:30:00 AM 11.06 51.908 0.04 6.57 1.72 10.75
10/25/2022 2:45:00 AM 11.06 51.908 0.04 6.44 1.71 10.75
10/25/2022 3:00:00 AM 11.05 51.89 0.04 6.55 1.73 10.75
10/25/2022 3:15:00 AM 11.04 51.872 0.04 6.56 1.74 10.75
10/25/2022 3:30:00 AM 11.04 51.872 0.04 6.55 1.73 10.75
10/25/2022 3:45:00 AM 11.04 51.872 0.04 6.54 1.72 10.75
10/25/2022 4:00:00 AM 11.03 51.854 0.04 6.6 1.71 10.75
10/25/2022 4:15:00 AM 11.03 51.854 0.04 6.53 1.77 10.75
10/25/2022 4:30:00 AM 11.03 51.854 0.04 6.53 1.85 10.76
10/25/2022 4:45:00 AM 11.02 51.836 0.04 6.59 1.8 10.75
10/25/2022 5:00:00 AM 11.02 51.836 0.04 6.55 1.81 10.75
10/25/2022 5:15:00 AM 11.02 51.836 0.04 6.56 1.7 10.75
10/25/2022 5:30:00 AM 11.02 51.836 0.04 6.57 1.72 10.75
10/25/2022 5:45:00 AM 11.02 51.836 0.04 6.61 1.68 10.75
10/25/2022 6:00:00 AM 11.02 51.836 0.04 6.57 1.77 10.75
10/25/2022 6:15:00 AM 11.02 51.836 0.04 6.54 1.75 10.75
10/25/2022 6:30:00 AM 11.02 51.836 0.04 6.61 1.78 10.75
10/25/2022 6:45:00 AM 11.02 51.836 0.04 6.56 1.82 10.76
10/25/2022 7:00:00 AM 11.01 51.818 0.04 6.56 1.74 10.75
10/25/2022 7:15:00 AM 11.01 51.818 0.04 6.58 1.67 10.75
10/25/2022 7:30:00 AM 11.01 51.818 0.04 6.54 1.76 10.75
10/25/2022 7:45:00 AM 11.01 51.818 0.04 6.55 1.75 10.76
10/25/2022 8:00:00 AM 11.01 51.818 0.04 6.55 1.73 10.8
10/25/2022 8:15:00 AM 11.02 51.836 0.04 6.59 1.69 10.86
10/25/2022 8:30:00 AM 11.03 51.854 0.041 6.56 1.72 10.9
10/25/2022 8:45:00 AM 11.05 51.89 0.04 6.56 1.7 10.95
10/25/2022 9:00:00 AM 11.07 51.926 0.04 6.61 1.69 11.01
10/25/2022 9:15:00 AM 11.1 51.98 0.04 6.58 1.7 11.09
10/25/2022 9:30:00 AM 11.14 52.052 0.04 6.64 1.65 11.15
10/25/2022 9:45:00 AM 11.18 52.124 0.04 6.64 1.69 11.2
10/25/2022 10:00:00 AM 11.22 52.196 0.04 6.67 1.68 11.24
10/25/2022 10:15:00 AM 11.26 52.268 0.04 6.68 1.64 11.24
10/25/2022 10:30:00 AM 11.31 52.358 0.04 6.68 1.67 11.28
10/25/2022 10:45:00 AM 11.37 52.466 0.04 6.71 1.71 11.29
10/25/2022 11:00:00 AM 11.43 52.574 0.04 6.74 1.74 11.31
10/25/2022 11:15:00 AM 11.53 52.754 0.04 6.77 1.68 11.34
10/25/2022 11:30:00 AM 11.65 52.97 0.04 6.79 1.64 11.35
10/25/2022 11:45:00 AM 11.74 53.132 0.04 6.81 1.67 11.34
10/25/2022 12:00:00 PM 11.87 53.366 0.039 6.87 1.6 11.31
10/25/2022 12:15:00 PM 11.98 53.564 0.04 6.85 1.64 11.31
10/25/2022 12:30:00 PM 12.09 53.762 0.039 6.85 1.67 11.28
10/25/2022 12:45:00 PM 12.15 53.87 0.039 6.9 1.64 11.25
10/25/2022 1:00:00 PM 12.27 54.086 0.039 6.87 1.65 11.23
10/25/2022 1:15:00 PM 12.41 54.338 0.039 6.91 1.64 11.21
10/25/2022 1:30:00 PM 12.54 54.572 0.039 6.88 1.62 11.17
10/25/2022 1:45:00 PM 12.62 54.716 0.039 6.87 49.35 11.14
10/25/2022 2:00:00 PM 12.74 54.932 0.039 6.89 1.62 11.12
10/25/2022 2:15:00 PM 12.81 55.058 0.039 6.88 1.53 11.08
10/25/2022 2:30:00 PM 12.88 55.184 0.039 6.87 1.56 11.07
10/25/2022 2:45:00 PM 13.03 55.454 0.039 6.89 1.59 11.04
10/25/2022 3:00:00 PM 13.12 55.616 0.039 6.88 1.48 10.99
10/25/2022 3:15:00 PM 13.12 55.616 0.039 6.92 1.51 10.93
10/25/2022 3:30:00 PM 13.03 55.454 0.039 6.91 1.45 10.89
10/25/2022 3:45:00 PM 13.01 55.418 0.039 6.84 1.49 10.85
10/25/2022 4:00:00 PM 12.89 55.202 0.039 6.83 2.75 10.78
10/25/2022 4:15:00 PM 12.82 55.076 0.039 6.83 1.62 10.74
10/25/2022 4:30:00 PM 12.83 55.094 0.039 6.83 1.53 10.75
10/25/2022 4:45:00 PM 12.84 55.112 0.039 6.82 1.78 10.73
10/25/2022 5:00:00 PM 12.89 55.202 0.039 6.83 1.5 10.71
10/25/2022 5:15:00 PM 12.89 55.202 0.039 6.79 1.55 10.65
10/25/2022 5:30:00 PM 12.88 55.184 0.039 6.79 1.48 10.57
10/25/2022 5:45:00 PM 12.86 55.148 0.039 6.78 1.47 10.52
10/25/2022 6:00:00 PM 12.84 55.112 0.039 6.75 1.57 10.45
10/25/2022 6:15:00 PM 12.81 55.058 0.04 6.73 1.61 10.38
10/25/2022 6:30:00 PM 12.78 55.004 0.04 6.72 1.58 10.34
10/25/2022 6:45:00 PM 12.74 54.932 0.04 6.75 1.55 10.29
10/25/2022 7:00:00 PM 12.7 54.86 0.04 6.69 1.55 10.27
10/25/2022 7:15:00 PM 12.67 54.806 0.04 6.68 1.6 10.27
10/25/2022 7:30:00 PM 12.64 54.752 0.04 6.72 1.57 10.26
10/25/2022 7:45:00 PM 12.61 54.698 0.04 6.67 1.62 10.27
10/25/2022 8:00:00 PM 12.58 54.644 0.04 6.66 1.61 10.26
10/25/2022 8:15:00 PM 12.56 54.608 0.04 6.66 1.56 10.27
10/25/2022 8:30:00 PM 12.53 54.554 0.04 6.65 1.62 10.28
10/25/2022 8:45:00 PM 12.5 54.5 0.04 6.67 1.54 10.28
10/25/2022 9:00:00 PM 12.48 54.464 0.04 6.65 1.58 10.28
10/25/2022 9:15:00 PM 12.45 54.41 0.04 6.62 1.6 10.29
10/25/2022 9:30:00 PM 12.44 54.392 0.04 6.62 1.57 10.29
10/25/2022 9:45:00 PM 12.43 54.374 0.04 6.6 1.67 10.3
10/25/2022 10:00:00 PM 12.42 54.356 0.041 6.67 1.55 10.3
10/25/2022 10:15:00 PM 12.41 54.338 0.041 6.62 1.64 10.3
10/25/2022 10:30:00 PM 12.4 54.32 0.041 6.62 1.57 10.3
10/25/2022 10:45:00 PM 12.39 54.302 0.041 6.59 1.64 10.3
10/25/2022 11:00:00 PM 12.38 54.284 0.041 6.61 1.54 10.31
10/25/2022 11:15:00 PM 12.37 54.266 0.04 6.6 1.55 10.31
10/25/2022 11:30:00 PM 12.36 54.248 0.04 6.64 1.54 10.31
10/25/2022 11:45:00 PM 12.35 54.23 0.04 6.61 1.5 10.31
10/26/2022 12:00:00 AM 12.34 54.212 0.04 6.59 1.57 10.31
10/26/2022 12:15:00 AM 12.33 54.194 0.04 6.59 1.64 10.32
10/26/2022 12:30:00 AM 12.32 54.176 0.04 6.59 1.6 10.32
10/26/2022 12:45:00 AM 12.31 54.158 0.04 6.58 1.63 10.32
10/26/2022 1:00:00 AM 12.3 54.14 0.04 6.61 1.61 10.31
10/26/2022 1:15:00 AM 12.29 54.122 0.04 6.58 1.58 10.32
10/26/2022 1:30:00 AM 12.28 54.104 0.04 6.58 1.67 10.32
10/26/2022 1:45:00 AM 12.27 54.086 0.04 6.6 1.66 10.32
10/26/2022 2:00:00 AM 12.27 54.086 0.04 6.58 1.58 10.32
10/26/2022 2:15:00 AM 12.26 54.068 0.04 6.57 1.55 10.32
10/26/2022 2:30:00 AM 12.26 54.068 0.04 6.56 1.63 10.32
10/26/2022 2:45:00 AM 12.25 54.05 0.04 6.55 1.57 10.32
10/26/2022 3:00:00 AM 12.25 54.05 0.04 6.56 1.62 10.32
10/26/2022 3:15:00 AM 12.25 54.05 0.04 6.62 1.56 10.33
10/26/2022 3:30:00 AM 12.24 54.032 0.04 6.58 1.57 10.32
10/26/2022 3:45:00 AM 12.24 54.032 0.04 6.57 1.59 10.32
10/26/2022 4:00:00 AM 12.24 54.032 0.04 6.63 1.67 10.32
10/26/2022 4:15:00 AM 12.24 54.032 0.04 6.6 1.65 10.32
10/26/2022 4:30:00 AM 12.24 54.032 0.04 6.58 1.7 10.32
10/26/2022 4:45:00 AM 12.24 54.032 0.04 6.61 1.66 10.31
10/26/2022 5:00:00 AM 12.24 54.032 0.04 6.59 1.6 10.31
10/26/2022 5:15:00 AM 12.24 54.032 0.04 6.64 1.57 10.31
10/26/2022 5:30:00 AM 12.25 54.05 0.04 6.62 1.58 10.32
10/26/2022 5:45:00 AM 12.25 54.05 0.04 6.62 1.62 10.32
10/26/2022 6:00:00 AM 12.25 54.05 0.04 6.63 2.39 10.31
10/26/2022 6:15:00 AM 12.25 54.05 0.04 6.62 1.73 10.31
10/26/2022 6:30:00 AM 12.24 54.032 0.04 6.62 1.58 10.31
10/26/2022 6:45:00 AM 12.24 54.032 0.04 6.63 1.57 10.31
10/26/2022 7:00:00 AM 12.24 54.032 0.04 6.66 1.63 10.31
10/26/2022 7:15:00 AM 12.25 54.05 0.04 6.61 1.56 10.3
10/26/2022 7:30:00 AM 12.25 54.05 0.04 6.59 1.6 10.3
10/26/2022 7:45:00 AM 12.26 54.068 0.04 6.6 1.76 10.32
10/26/2022 8:00:00 AM 12.27 54.086 0.04 6.59 1.62 10.33
10/26/2022 8:15:00 AM 12.27 54.086 0.04 6.61 1.61 10.36
10/26/2022 8:30:00 AM 12.27 54.086 0.04 6.62 1.56 10.38
10/26/2022 8:45:00 AM 12.28 54.104 0.04 6.62 1.62 10.42
10/26/2022 9:00:00 AM 12.29 54.122 0.04 6.61 1.6 10.46
10/26/2022 9:15:00 AM 12.31 54.158 0.04 6.64 1.6 10.54
10/26/2022 9:30:00 AM 12.35 54.23 0.04 6.67 1.56 10.63
10/26/2022 9:45:00 AM 12.39 54.302 0.04 6.69 1.6 10.69
10/26/2022 10:00:00 AM 12.41 54.338 0.04 6.71 1.56 10.72
10/26/2022 10:15:00 AM 12.44 54.392 0.04 6.72 1.52 10.75
10/26/2022 10:30:00 AM 12.48 54.464 0.04 6.73 1.53 10.79
10/26/2022 10:45:00 AM 12.53 54.554 0.04 6.75 1.53 10.85
10/26/2022 11:00:00 AM 12.6 54.68 0.04 6.79 1.54 10.9
10/26/2022 11:15:00 AM 12.67 54.806 0.04 6.81 1.57 10.92
10/26/2022 11:30:00 AM 12.73 54.914 0.04 6.84 1.73 10.92
10/26/2022 11:45:00 AM 12.82 55.076 0.04 6.83 1.88 10.93
10/26/2022 12:00:00 PM 12.93 55.274 0.04 6.84 1.92 10.93
10/26/2022 12:15:00 PM 13.09 55.562 0.04 6.89 1.76 10.91
10/26/2022 12:30:00 PM 13.18 55.724 0.04 6.88 1.72 10.9
10/26/2022 12:45:00 PM 13.38 56.084 0.04 6.9 1.71 10.9
10/26/2022 1:00:00 PM 13.45 56.21 0.04 6.9 1.6 10.86
10/26/2022 1:15:00 PM 13.46 56.228 0.04 6.9 1.64 10.82
10/26/2022 1:30:00 PM 13.48 56.264 0.04 6.93 1.72 10.81
10/26/2022 1:45:00 PM 13.62 56.516 0.04 6.91 1.57 10.8
10/26/2022 2:00:00 PM 13.71 56.678 0.04 6.91 1.65 10.75
10/26/2022 2:15:00 PM 13.79 56.822 0.04 6.91 1.65 10.7
10/26/2022 2:30:00 PM 13.82 56.876 0.04 6.87 1.62 10.56
10/26/2022 2:45:00 PM 13.92 57.056 0.04 6.88 1.63 10.58
10/26/2022 3:00:00 PM 13.98 57.164 0.041 6.91 1.74 10.59
10/26/2022 3:15:00 PM 13.97 57.146 0.041 6.89 1.62 10.56
10/26/2022 3:30:00 PM 13.98 57.164 0.041 6.94 1.66 10.55
10/26/2022 3:45:00 PM 13.96 57.128 0.041 6.88 1.64 10.49
10/26/2022 4:00:00 PM 13.91 57.038 0.041 6.9 1.68 10.41
10/26/2022 4:15:00 PM 13.89 57.002 0.041 6.88 1.66 10.45
10/26/2022 4:30:00 PM 13.84 56.912 0.041 6.86 1.67 10.4
10/26/2022 4:45:00 PM 13.8 56.84 0.041 6.84 1.63 10.34
10/26/2022 5:00:00 PM 13.75 56.75 0.041 6.82 1.66 10.28
10/26/2022 5:15:00 PM 13.72 56.696 0.041 6.82 1.6 10.24
10/26/2022 5:30:00 PM 13.67 56.606 0.041 6.78 1.67 10.2
10/26/2022 5:45:00 PM 13.64 56.552 0.041 6.78 1.61 10.14
10/26/2022 6:00:00 PM 13.6 56.48 0.041 6.76 1.7 10.09
10/26/2022 6:15:00 PM 13.57 56.426 0.041 6.76 1.64 10.06
10/26/2022 6:30:00 PM 13.53 56.354 0.041 6.72 1.75 10.03
10/26/2022 6:45:00 PM 13.51 56.318 0.041 6.71 1.65 10.01
10/26/2022 7:00:00 PM 13.48 56.264 0.041 6.71 1.65 10
10/26/2022 7:15:00 PM 13.46 56.228 0.041 6.71 1.67 10
10/26/2022 7:30:00 PM 13.42 56.156 0.04 6.73 1.65 10
10/26/2022 7:45:00 PM 13.38 56.084 0.041 6.68 1.65 10.01
10/26/2022 8:00:00 PM 13.32 55.976 0.04 6.67 1.71 10.02
10/26/2022 8:15:00 PM 13.26 55.868 0.04 6.66 1.69 10.03
10/26/2022 8:30:00 PM 13.2 55.76 0.04 6.67 1.71 10.04
10/26/2022 8:45:00 PM 13.14 55.652 0.04 6.66 1.66 10.06
10/26/2022 9:00:00 PM 13.09 55.562 0.04 6.66 1.72 10.07
10/26/2022 9:15:00 PM 13.04 55.472 0.04 6.65 1.71 10.09
10/26/2022 9:30:00 PM 13 55.4 0.04 6.64 1.71 10.1
10/26/2022 9:45:00 PM 12.96 55.328 0.04 6.65 1.74 10.11
10/26/2022 10:00:00 PM 12.92 55.256 0.04 6.7 1.69 10.12
10/26/2022 10:15:00 PM 12.87 55.166 0.04 6.64 2.03 10.14
10/26/2022 10:30:00 PM 12.81 55.058 0.04 6.64 1.74 10.15
10/26/2022 10:45:00 PM 12.76 54.968 0.04 6.68 1.72 10.17
10/26/2022 11:00:00 PM 12.71 54.878 0.039 6.64 1.75 10.18
10/26/2022 11:15:00 PM 12.66 54.788 0.04 6.64 1.72 10.2
10/26/2022 11:30:00 PM 12.6 54.68 0.039 6.63 1.67 10.21
10/26/2022 11:45:00 PM 12.54 54.572 0.039 6.64 1.81 10.23
10/27/2022 12:00:00 AM 12.48 54.464 0.039 6.53 1.7 10.25
10/27/2022 12:15:00 AM 12.42 54.356 0.039 6.63 1.71 10.27
10/27/2022 12:30:00 AM 12.37 54.266 0.039 6.63 1.73 10.28
10/27/2022 12:45:00 AM 12.33 54.194 0.039 6.49 1.73 10.29
10/27/2022 1:00:00 AM 12.29 54.122 0.039 6.62 1.66 10.3
10/27/2022 1:15:00 AM 12.25 54.05 0.039 6.64 1.78 10.32
10/27/2022 1:30:00 AM 12.22 53.996 0.039 6.63 1.74 10.33
10/27/2022 1:45:00 AM 12.18 53.924 0.039 6.62 1.65 10.35
10/27/2022 2:00:00 AM 12.15 53.87 0.039 6.67 1.69 10.36
10/27/2022 2:15:00 AM 12.11 53.798 0.039 6.61 2.01 10.37
10/27/2022 2:30:00 AM 12.09 53.762 0.039 6.66 1.77 10.38
10/27/2022 2:45:00 AM 12.05 53.69 0.039 6.63 1.91 10.39
10/27/2022 3:00:00 AM 12.01 53.618 0.039 6.66 1.69 10.41
10/27/2022 3:15:00 AM 11.98 53.564 0.039 6.62 1.72 10.42
10/27/2022 3:30:00 AM 11.94 53.492 0.039 6.63 1.75 10.42
10/27/2022 3:45:00 AM 11.89 53.402 0.039 6.62 1.72 10.44
10/27/2022 4:00:00 AM 11.87 53.366 0.039 6.63 1.68 10.45
10/27/2022 4:15:00 AM 11.85 53.33 0.039 6.66 1.65 10.47
10/27/2022 4:30:00 AM 11.81 53.258 0.039 6.68 1.72 10.47
10/27/2022 4:45:00 AM 11.79 53.222 0.039 6.69 1.72 10.48
10/27/2022 5:00:00 AM 11.76 53.168 0.039 6.64 1.71 10.49
10/27/2022 5:15:00 AM 11.73 53.114 0.039 6.68 1.69 10.49
10/27/2022 5:30:00 AM 11.69 53.042 0.039 6.64 1.7 10.51
10/27/2022 5:45:00 AM 11.67 53.006 0.039 6.69 1.73 10.52
10/27/2022 6:00:00 AM 11.64 52.952 0.039 6.65 1.68 10.53
10/27/2022 6:15:00 AM 11.61 52.898 0.039 6.68 1.78 10.55
10/27/2022 6:30:00 AM 11.58 52.844 0.039 6.53 1.62 10.56
10/27/2022 6:45:00 AM 11.54 52.772 0.039 6.65 1.79 10.57
10/27/2022 7:00:00 AM 11.5 52.7 0.039 6.64 1.71 10.58
10/27/2022 7:15:00 AM 11.48 52.664 0.039 6.63 1.66 10.59
10/27/2022 7:30:00 AM 11.44 52.592 0.039 6.62 1.92 10.61
10/27/2022 7:45:00 AM 11.4 52.52 0.039 6.63 1.74 10.63
10/27/2022 8:00:00 AM 11.37 52.466 0.039 6.64 1.67 10.68
10/27/2022 8:15:00 AM 11.32 52.376 0.039 6.65 1.96 10.77
10/27/2022 8:30:00 AM 11.28 52.304 0.039 6.72 1.62 10.84
10/27/2022 8:45:00 AM 11.26 52.268 0.039 6.69 1.71 10.91
10/27/2022 9:00:00 AM 11.24 52.232 0.039 6.7 1.71 10.98
10/27/2022 9:15:00 AM 11.22 52.196 0.039 6.7 1.68 11.02
10/27/2022 9:30:00 AM 11.2 52.16 0.039 6.77 1.62 11.1
10/27/2022 9:45:00 AM 11.19 52.142 0.038 6.75 1.65 11.16
10/27/2022 10:00:00 AM 11.2 52.16 0.038 6.75 1.77 11.23
10/27/2022 10:15:00 AM 11.21 52.178 0.038 6.8 1.72 11.29
10/27/2022 10:30:00 AM 11.21 52.178 0.038 6.79 1.63 11.34
10/27/2022 10:45:00 AM 11.18 52.124 0.038 6.8 1.66 11.35
10/27/2022 11:00:00 AM 11.16 52.088 0.038 6.8 1.62 11.35
10/27/2022 11:15:00 AM 11.18 52.124 0.038 6.81 1.6 11.37
10/27/2022 11:30:00 AM 11.16 52.088 0.038 6.84 1.63 11.35
10/27/2022 11:45:00 AM 11.25 52.25 0.038 6.84 1.62 11.35
10/27/2022 12:00:00 PM 11.36 52.448 0.038 6.81 1.67 11.35
10/27/2022 12:15:00 PM 11.46 52.628 0.038 6.82 1.66 11.35
10/27/2022 12:30:00 PM 11.59 52.862 0.038 6.84 1.65 11.36
10/27/2022 12:45:00 PM 11.71 53.078 0.039 6.83 1.63 11.33
10/27/2022 1:00:00 PM 11.83 53.294 0.038 6.83 1.64 11.31
10/27/2022 1:15:00 PM 11.96 53.528 0.038 6.83 1.66 11.29
10/27/2022 1:30:00 PM 12.09 53.762 0.038 6.84 1.61 11.26
10/27/2022 1:45:00 PM 12.2 53.96 0.038 6.84 1.59 11.22
10/27/2022 2:00:00 PM 12.3 54.14 0.038 6.85 1.64 11.19
10/27/2022 2:15:00 PM 12.37 54.266 0.039 6.83 1.62 11.17
10/27/2022 2:30:00 PM 12.39 54.302 0.038 6.86 1.58 11.14
10/27/2022 2:45:00 PM 12.4 54.32 0.039 6.87 1.58 11.15
10/27/2022 3:00:00 PM 12.39 54.302 0.039 6.87 1.66 11.13
10/27/2022 3:15:00 PM 12.33 54.194 0.039 6.9 1.59 11.13
10/27/2022 3:30:00 PM 12.25 54.05 0.039 6.86 1.67 11.13
10/27/2022 3:45:00 PM 12.15 53.87 0.039 6.9 1.65 11.13
10/27/2022 4:00:00 PM 12.05 53.69 0.039 6.86 1.62 11.13
10/27/2022 4:15:00 PM 11.94 53.492 0.039 6.86 1.62 11.13
10/27/2022 4:30:00 PM 11.83 53.294 0.039 6.83 1.67 11.11
10/27/2022 4:45:00 PM 11.72 53.096 0.039 6.82 1.69 11.09
10/27/2022 5:00:00 PM 11.59 52.862 0.039 6.79 1.65 11.09
10/27/2022 5:15:00 PM 11.48 52.664 0.039 6.78 2.23 11.06
10/27/2022 5:30:00 PM 11.36 52.448 0.039 6.82 1.61 11.03
10/27/2022 5:45:00 PM 11.25 52.25 0.039 6.77 1.65 11.01
10/27/2022 6:00:00 PM 11.13 52.034 0.039 6.79 1.65 10.99
10/27/2022 6:15:00 PM 11.03 51.854 0.039 6.72 1.7 10.93
10/27/2022 6:30:00 PM 10.93 51.674 0.04 6.73 1.62 10.91
10/27/2022 6:45:00 PM 10.85 51.53 0.039 6.7 1.7 10.89
10/27/2022 7:00:00 PM 10.79 51.422 0.039 6.71 1.73 10.88
10/27/2022 7:15:00 PM 10.73 51.314 0.039 6.68 1.7 10.88
10/27/2022 7:30:00 PM 10.66 51.188 0.04 6.68 1.7 10.88
10/27/2022 7:45:00 PM 10.6 51.08 0.04 6.68 1.69 10.9
10/27/2022 8:00:00 PM 10.55 50.99 0.04 6.68 1.68 10.9
10/27/2022 8:15:00 PM 10.49 50.882 0.04 6.69 1.69 10.92
10/27/2022 8:30:00 PM 10.44 50.792 0.04 6.68 1.72 10.93
10/27/2022 8:45:00 PM 10.4 50.72 0.04 6.72 1.74 10.94
10/27/2022 9:00:00 PM 10.37 50.666 0.04 6.68 1.69 10.95
10/27/2022 9:15:00 PM 10.33 50.594 0.04 6.68 1.74 10.97
10/27/2022 9:30:00 PM 10.28 50.504 0.04 6.66 1.77 10.98
10/27/2022 9:45:00 PM 10.23 50.414 0.04 6.71 1.68 11
10/27/2022 10:00:00 PM 10.19 50.342 0.04 6.71 1.67 11.01
10/27/2022 10:15:00 PM 10.13 50.234 0.04 6.7 1.7 11.03
10/27/2022 10:30:00 PM 10.08 50.144 0.04 6.67 1.71 11.05
10/27/2022 10:45:00 PM 10.03 50.054 0.04 6.7 1.71 11.07
10/27/2022 11:00:00 PM 9.98 49.964 0.04 6.71 1.61 11.08
10/27/2022 11:15:00 PM 9.93 49.874 0.04 6.65 1.76 11.1
10/27/2022 11:30:00 PM 9.87 49.766 0.04 6.71 1.69 11.1
10/27/2022 11:45:00 PM 9.81 49.658 0.04 6.65 1.67 11.13
10/28/2022 12:00:00 AM 9.76 49.568 0.04 6.65 1.66 11.15
10/28/2022 12:15:00 AM 9.71 49.478 0.04 6.66 1.74 11.17
10/28/2022 12:30:00 AM 9.66 49.388 0.04 6.66 1.74 11.19
10/28/2022 12:45:00 AM 9.61 49.298 0.04 6.63 1.68 11.19
10/28/2022 1:00:00 AM 9.58 49.244 0.04 6.65 1.87 11.21
10/28/2022 1:15:00 AM 9.54 49.172 0.04 6.65 1.7 11.22
10/28/2022 1:30:00 AM 9.49 49.082 0.04 6.66 1.68 11.24
10/28/2022 1:45:00 AM 9.45 49.01 0.04 6.65 1.66 11.25
10/28/2022 2:00:00 AM 9.4 48.92 0.04 6.66 1.73 11.26
10/28/2022 2:15:00 AM 9.35 48.83 0.04 6.63 1.69 11.3
10/28/2022 2:30:00 AM 9.29 48.722 0.04 6.62 1.66 11.3
10/28/2022 2:45:00 AM 9.23 48.614 0.04 6.6 1.72 11.32
10/28/2022 3:00:00 AM 9.17 48.506 0.04 6.55 1.67 11.34
10/28/2022 3:15:00 AM 9.11 48.398 0.04 6.57 1.66 11.35
10/28/2022 3:30:00 AM 9.04 48.272 0.04 6.56 1.73 11.38
10/28/2022 3:45:00 AM 8.97 48.146 0.04 6.6 1.65 11.4
10/28/2022 4:00:00 AM 8.91 48.038 0.04 6.57 1.63 11.43
10/28/2022 4:15:00 AM 8.84 47.912 0.04 6.57 1.69 11.45
10/28/2022 4:30:00 AM 8.77 47.786 0.04 6.55 1.65 11.47
10/28/2022 4:45:00 AM 8.71 47.678 0.04 6.56 1.69 11.49
10/28/2022 5:00:00 AM 8.65 47.57 0.04 6.58 1.67 11.5
10/28/2022 5:15:00 AM 8.59 47.462 0.04 6.62 1.67 11.53
10/28/2022 5:30:00 AM 8.53 47.354 0.04 6.59 1.69 11.55
10/28/2022 5:45:00 AM 8.47 47.246 0.04 6.64 1.69 11.57
10/28/2022 6:00:00 AM 8.41 47.138 0.04 6.64 1.67 11.58
10/28/2022 6:15:00 AM 8.36 47.048 0.04 6.59 1.67 11.6
10/28/2022 6:30:00 AM 8.31 46.958 0.04 6.62 1.64 11.62
10/28/2022 6:45:00 AM 8.26 46.868 0.04 6.6 1.68 11.64
10/28/2022 7:00:00 AM 8.2 46.76 0.04 6.6 1.69 11.66
10/28/2022 7:15:00 AM 8.15 46.67 0.04 6.64 1.71 11.68
10/28/2022 7:30:00 AM 8.11 46.598 0.04 6.62 1.86 11.69
10/28/2022 7:45:00 AM 8.06 46.508 0.04 6.63 1.65 11.73
10/28/2022 8:00:00 AM 8.03 46.454 0.04 6.65 1.76 11.81
10/28/2022 8:15:00 AM 7.99 46.382 0.04 6.65 1.73 11.91
10/28/2022 8:30:00 AM 7.96 46.328 0.04 6.68 1.65 11.99
10/28/2022 8:45:00 AM 7.94 46.292 0.04 6.67 1.67 12.06
10/28/2022 9:00:00 AM 7.93 46.274 0.04 6.72 1.65 12.13
10/28/2022 9:15:00 AM 7.93 46.274 0.04 6.73 1.71 12.2
10/28/2022 9:30:00 AM 7.94 46.292 0.04 6.74 1.64 12.27
10/28/2022 9:45:00 AM 7.96 46.328 0.04 6.75 1.63 12.32
10/28/2022 10:00:00 AM 7.99 46.382 0.039 6.8 1.63 12.35
10/28/2022 10:15:00 AM 8.04 46.472 0.039 6.8 1.7 12.39
10/28/2022 10:30:00 AM 8.1 46.58 0.039 6.83 1.71 12.41
10/28/2022 10:45:00 AM 8.16 46.688 0.039 6.82 1.72 12.41
10/28/2022 11:00:00 AM 8.23 46.814 0.039 6.82 1.62 12.4
10/28/2022 11:15:00 AM 8.35 47.03 0.039 6.81 1.66 12.4
10/28/2022 11:30:00 AM 8.46 47.228 0.039 6.88 1.62 12.39
10/28/2022 11:45:00 AM 8.57 47.426 0.039 6.88 1.63 12.37
10/28/2022 12:00:00 PM 8.67 47.606 0.039 6.84 1.63 12.35
10/28/2022 12:15:00 PM 8.81 47.858 0.039 6.86 1.64 12.32
10/28/2022 12:30:00 PM 8.97 48.146 0.039 6.9 1.62 12.28
10/28/2022 12:45:00 PM 9.14 48.452 0.039 6.86 1.62 12.24
10/28/2022 1:00:00 PM 9.29 48.722 0.039 6.86 1.56 12.18
10/28/2022 1:15:00 PM 9.45 49.01 0.039 6.86 1.6 12.14
10/28/2022 1:30:00 PM 9.6 49.28 0.039 6.92 1.63 12.11
10/28/2022 1:45:00 PM 9.72 49.496 0.039 6.87 1.63 12.06
10/28/2022 2:00:00 PM 9.81 49.658 0.039 6.87 1.63 12.02
10/28/2022 2:15:00 PM 9.89 49.802 0.039 6.87 1.58 12
10/28/2022 2:30:00 PM 9.98 49.964 0.039 6.87 1.61 11.96
10/28/2022 2:45:00 PM 10.02 50.036 0.039 6.88 1.62 11.94
10/28/2022 3:00:00 PM 10.04 50.072 0.039 6.9 1.58 11.93
10/28/2022 3:15:00 PM 10.03 50.054 0.039 6.89 1.58 11.92
10/28/2022 3:30:00 PM 10.06 50.108 0.039 6.91 1.6 11.91
10/28/2022 3:45:00 PM 10.06 50.108 0.039 6.87 1.63 11.9
10/28/2022 4:00:00 PM 10.04 50.072 0.039 6.93 1.65 11.88
10/28/2022 4:15:00 PM 10.01 50.018 0.039 6.84 1.62 11.86
10/28/2022 4:30:00 PM 9.99 49.982 0.039 6.84 1.6 11.84
10/28/2022 4:45:00 PM 9.98 49.964 0.039 6.88 1.59 11.84
10/28/2022 5:00:00 PM 9.95 49.91 0.039 6.89 1.54 11.81
10/28/2022 5:15:00 PM 9.9 49.82 0.039 6.89 1.7 11.77
10/28/2022 5:30:00 PM 9.83 49.694 0.039 6.82 1.66 11.72
10/28/2022 5:45:00 PM 9.77 49.586 0.039 6.85 1.65 11.63
10/28/2022 6:00:00 PM 9.72 49.496 0.039 6.8 1.59 11.54
10/28/2022 6:15:00 PM 9.65 49.37 0.039 6.76 1.71 11.47
10/28/2022 6:30:00 PM 9.6 49.28 0.04 6.74 1.64 11.41
10/28/2022 6:45:00 PM 9.54 49.172 0.04 6.73 1.62 11.37
10/28/2022 7:00:00 PM 9.5 49.1 0.04 6.72 1.66 11.35
10/28/2022 7:15:00 PM 9.46 49.028 0.04 6.69 1.65 11.34
10/28/2022 7:30:00 PM 9.44 48.992 0.04 6.69 1.7 11.33
10/28/2022 7:45:00 PM 9.41 48.938 0.04 6.69 1.71 11.31
10/28/2022 8:00:00 PM 9.39 48.902 0.04 6.68 1.62 11.32
10/28/2022 8:15:00 PM 9.38 48.884 0.04 6.71 1.69 11.32
10/28/2022 8:30:00 PM 9.35 48.83 0.04 6.67 1.67 11.31
10/28/2022 8:45:00 PM 9.32 48.776 0.04 6.66 1.66 11.32
10/28/2022 9:00:00 PM 9.29 48.722 0.04 6.67 1.65 11.33
10/28/2022 9:15:00 PM 9.24 48.632 0.04 6.67 1.64 11.35
10/28/2022 9:30:00 PM 9.19 48.542 0.04 6.72 1.59 11.35
10/28/2022 9:45:00 PM 9.15 48.47 0.04 6.69 1.66 11.36
10/28/2022 10:00:00 PM 9.1 48.38 0.04 6.66 1.7 11.38
10/28/2022 10:15:00 PM 9.04 48.272 0.04 6.66 1.65 11.4
10/28/2022 10:30:00 PM 8.99 48.182 0.04 6.71 1.69 11.4
10/28/2022 10:45:00 PM 8.93 48.074 0.04 6.66 1.7 11.42
10/28/2022 11:00:00 PM 8.88 47.984 0.04 6.64 1.74 11.43
10/28/2022 11:15:00 PM 8.81 47.858 0.04 6.67 1.66 11.45
10/28/2022 11:30:00 PM 8.75 47.75 0.04 6.65 1.69 11.48
10/28/2022 11:45:00 PM 8.7 47.66 0.04 6.71 1.77 11.49
10/29/2022 12:00:00 AM 8.64 47.552 0.04 6.66 1.72 11.51
10/29/2022 12:15:00 AM 8.57 47.426 0.04 6.67 1.69 11.54
10/29/2022 12:30:00 AM 8.51 47.318 0.04 6.67 1.67 11.55
10/29/2022 12:45:00 AM 8.46 47.228 0.041 6.67 1.72 11.56
10/29/2022 1:00:00 AM 8.4 47.12 0.041 6.72 1.65 11.57
10/29/2022 1:15:00 AM 8.34 47.012 0.041 6.69 1.72 11.59
10/29/2022 1:30:00 AM 8.28 46.904 0.041 6.68 1.67 11.62
10/29/2022 1:45:00 AM 8.23 46.814 0.041 6.66 1.66 11.64
10/29/2022 2:00:00 AM 8.16 46.688 0.041 6.65 1.7 11.66
10/29/2022 2:15:00 AM 8.11 46.598 0.041 6.62 1.69 11.67
10/29/2022 2:30:00 AM 8.05 46.49 0.041 6.64 1.66 11.69
10/29/2022 2:45:00 AM 7.99 46.382 0.041 6.67 1.65 11.71
10/29/2022 3:00:00 AM 7.93 46.274 0.041 6.62 1.67 11.73
10/29/2022 3:15:00 AM 7.88 46.184 0.041 6.67 1.71 11.76
10/29/2022 3:30:00 AM 7.82 46.076 0.041 6.62 1.68 11.78
10/29/2022 3:45:00 AM 7.76 45.968 0.041 6.62 1.67 11.79
10/29/2022 4:00:00 AM 7.71 45.878 0.041 6.62 1.66 11.81
10/29/2022 4:15:00 AM 7.65 45.77 0.041 6.66 1.61 11.83
10/29/2022 4:30:00 AM 7.6 45.68 0.041 6.62 1.66 11.84
10/29/2022 4:45:00 AM 7.54 45.572 0.041 6.63 1.66 11.86
10/29/2022 5:00:00 AM 7.48 45.464 0.04 6.65 1.68 11.88
10/29/2022 5:15:00 AM 7.43 45.374 0.041 6.63 1.69 11.9
10/29/2022 5:30:00 AM 7.37 45.266 0.04 6.62 1.65 11.92
10/29/2022 5:45:00 AM 7.32 45.176 0.041 6.66 1.7 11.94
10/29/2022 6:00:00 AM 7.26 45.068 0.041 6.64 1.71 11.95
10/29/2022 6:15:00 AM 7.21 44.978 0.041 6.63 1.7 11.97
10/29/2022 6:30:00 AM 7.15 44.87 0.041 6.63 1.61 11.99
10/29/2022 6:45:00 AM 7.1 44.78 0.041 6.62 1.64 12
10/29/2022 7:00:00 AM 7.05 44.69 0.041 6.63 1.8 12.02
10/29/2022 7:15:00 AM 6.99 44.582 0.041 6.65 1.67 12.04
10/29/2022 7:30:00 AM 6.94 44.492 0.041 6.62 1.71 12.06
10/29/2022 7:45:00 AM 6.9 44.42 0.041 6.68 1.67 12.11
10/29/2022 8:00:00 AM 6.85 44.33 0.041 6.64 1.73 12.18
10/29/2022 8:15:00 AM 6.81 44.258 0.041 6.66 1.67 12.25
10/29/2022 8:30:00 AM 6.77 44.186 0.041 6.64 1.69 12.3
10/29/2022 8:45:00 AM 6.74 44.132 0.04 6.71 1.78 12.38
10/29/2022 9:00:00 AM 6.72 44.096 0.041 6.68 1.62 12.44
10/29/2022 9:15:00 AM 6.71 44.078 0.041 6.69 1.65 12.49
10/29/2022 9:30:00 AM 6.71 44.078 0.04 6.72 1.7 12.53
10/29/2022 9:45:00 AM 6.71 44.078 0.041 6.77 1.71 12.57
10/29/2022 10:00:00 AM 6.73 44.114 0.04 6.73 1.65 12.58
10/29/2022 10:15:00 AM 6.76 44.168 0.04 6.79 1.7 12.62
10/29/2022 10:30:00 AM 6.79 44.222 0.04 6.77 1.66 12.64
10/29/2022 10:45:00 AM 6.85 44.33 0.04 6.77 1.67 12.66
10/29/2022 11:00:00 AM 6.93 44.474 0.04 6.82 1.73 12.65
10/29/2022 11:15:00 AM 7.03 44.654 0.04 6.78 1.67 12.66
10/29/2022 11:30:00 AM 7.16 44.888 0.04 6.78 1.68 12.64
10/29/2022 11:45:00 AM 7.34 45.212 0.04 6.82 1.74 12.63
10/29/2022 12:00:00 PM 7.56 45.608 0.04 6.8 1.67 12.59
10/29/2022 12:15:00 PM 7.78 46.004 0.04 6.85 1.59 12.55
10/29/2022 12:30:00 PM 8.03 46.454 0.04 6.84 1.71 12.49
10/29/2022 12:45:00 PM 8.28 46.904 0.04 6.83 1.66 12.44
10/29/2022 1:00:00 PM 8.52 47.336 0.04 6.84 1.63 12.38
10/29/2022 1:15:00 PM 8.76 47.768 0.04 6.89 1.81 12.32
10/29/2022 1:30:00 PM 8.96 48.128 0.04 6.85 1.59 12.26
10/29/2022 1:45:00 PM 9.13 48.434 0.04 6.86 1.6 12.21
10/29/2022 2:00:00 PM 9.28 48.704 0.04 6.85 1.6 12.16
10/29/2022 2:15:00 PM 9.38 48.884 0.04 6.85 1.61 12.12
10/29/2022 2:30:00 PM 9.46 49.028 0.04 6.88 1.63 12.09
10/29/2022 2:45:00 PM 9.53 49.154 0.04 6.87 1.59 12.06
10/29/2022 3:00:00 PM 9.56 49.208 0.04 6.89 1.64 12.04
10/29/2022 3:15:00 PM 9.57 49.226 0.04 6.92 1.64 12.02
10/29/2022 3:30:00 PM 9.56 49.208 0.04 6.89 1.58 12
10/29/2022 3:45:00 PM 9.52 49.136 0.04 6.85 1.61 11.97
10/29/2022 4:00:00 PM 9.47 49.046 0.04 6.83 1.61 11.96
10/29/2022 4:15:00 PM 9.41 48.938 0.04 6.86 1.6 11.94
10/29/2022 4:30:00 PM 9.35 48.83 0.04 6.83 1.75 11.93
10/29/2022 4:45:00 PM 9.27 48.686 0.04 6.84 1.67 11.9
10/29/2022 5:00:00 PM 9.18 48.524 0.04 6.82 1.67 11.87
10/29/2022 5:15:00 PM 9.11 48.398 0.04 6.81 1.68 11.85
10/29/2022 5:30:00 PM 9 48.2 0.04 6.77 1.7 11.82
10/29/2022 5:45:00 PM 8.89 48.002 0.04 6.77 1.74 11.78
10/29/2022 6:00:00 PM 8.78 47.804 0.04 6.83 1.67 11.74
10/29/2022 6:15:00 PM 8.67 47.606 0.04 6.74 1.67 11.69
10/29/2022 6:30:00 PM 8.57 47.426 0.04 6.76 1.97 11.66
10/29/2022 6:45:00 PM 8.49 47.282 0.04 6.72 1.76 11.64
10/29/2022 7:00:00 PM 8.42 47.156 0.04 6.7 1.81 11.63
10/29/2022 7:15:00 PM 8.35 47.03 0.041 6.71 1.74 11.62
10/29/2022 7:30:00 PM 8.29 46.922 0.041 6.69 1.72 11.64
10/29/2022 7:45:00 PM 8.23 46.814 0.041 6.69 1.75 11.64
10/29/2022 8:00:00 PM 8.19 46.742 0.041 6.69 1.73 11.64
10/29/2022 8:15:00 PM 8.15 46.67 0.041 6.7 1.73 11.65
10/29/2022 8:30:00 PM 8.12 46.616 0.041 6.68 1.72 11.65
10/29/2022 8:45:00 PM 8.08 46.544 0.041 6.72 1.79 11.66
10/29/2022 9:00:00 PM 8.05 46.49 0.041 6.74 1.88 11.66
10/29/2022 9:15:00 PM 8.01 46.418 0.041 6.73 1.76 11.67
10/29/2022 9:30:00 PM 7.98 46.364 0.042 6.69 1.82 11.68
10/29/2022 9:45:00 PM 7.94 46.292 0.042 6.67 1.71 11.69
10/29/2022 10:00:00 PM 7.9 46.22 0.041 6.69 1.74 11.69
10/29/2022 10:15:00 PM 7.86 46.148 0.041 6.68 1.68 11.71
10/29/2022 10:30:00 PM 7.82 46.076 0.041 6.69 1.69 11.73
10/29/2022 10:45:00 PM 7.77 45.986 0.041 6.67 1.7 11.74
10/29/2022 11:00:00 PM 7.73 45.914 0.041 6.68 1.67 11.75
10/29/2022 11:15:00 PM 7.69 45.842 0.041 6.68 1.66 11.77
10/29/2022 11:30:00 PM 7.64 45.752 0.041 6.69 1.68 11.77
10/29/2022 11:45:00 PM 7.59 45.662 0.041 6.66 1.69 11.8
10/30/2022 12:00:00 AM 7.55 45.59 0.041 6.72 1.68 11.81
10/30/2022 12:15:00 AM 7.5 45.5 0.041 6.67 1.71 11.83
10/30/2022 12:30:00 AM 7.46 45.428 0.041 6.68 1.65 11.84
10/30/2022 12:45:00 AM 7.42 45.356 0.041 6.66 1.71 11.84
10/30/2022 1:00:00 AM 7.37 45.266 0.041 6.67 1.64 11.87
10/30/2022 1:15:00 AM 7.32 45.176 0.041 6.69 1.69 11.88
10/30/2022 1:30:00 AM 7.27 45.086 0.041 6.68 1.65 11.89
10/30/2022 1:45:00 AM 7.23 45.014 0.041 6.68 1.7 11.9
10/30/2022 2:00:00 AM 7.18 44.924 0.041 6.66 1.68 11.92
10/30/2022 2:15:00 AM 7.14 44.852 0.041 6.67 1.7 11.93
10/30/2022 2:30:00 AM 7.09 44.762 0.041 6.71 1.7 11.95
10/30/2022 2:45:00 AM 7.05 44.69 0.041 6.69 1.65 11.97
10/30/2022 3:00:00 AM 7 44.6 0.041 6.66 1.71 11.97
10/30/2022 3:15:00 AM 6.95 44.51 0.041 6.71 1.67 11.99
10/30/2022 3:30:00 AM 6.9 44.42 0.041 6.68 1.68 12
10/30/2022 3:45:00 AM 6.85 44.33 0.041 6.65 1.7 12.03
10/30/2022 4:00:00 AM 6.8 44.24 0.041 6.66 1.64 12.04
10/30/2022 4:15:00 AM 6.75 44.15 0.041 6.65 1.7 12.05
10/30/2022 4:30:00 AM 6.7 44.06 0.041 6.64 1.68 12.07
10/30/2022 4:45:00 AM 6.65 43.97 0.041 6.69 1.69 12.09
10/30/2022 5:00:00 AM 6.6 43.88 0.041 6.65 1.68 12.1
10/30/2022 5:15:00 AM 6.55 43.79 0.041 6.63 1.81 12.12
10/30/2022 5:30:00 AM 6.5 43.7 0.041 6.63 1.63 12.14
10/30/2022 5:45:00 AM 6.45 43.61 0.041 6.62 1.68 12.15
10/30/2022 6:00:00 AM 6.4 43.52 0.041 6.62 1.66 12.16
10/30/2022 6:15:00 AM 6.35 43.43 0.041 6.63 1.71 12.18
10/30/2022 6:30:00 AM 6.3 43.34 0.041 6.62 1.69 12.19
10/30/2022 6:45:00 AM 6.25 43.25 0.041 6.68 1.66 12.22
10/30/2022 7:00:00 AM 6.21 43.178 0.041 6.61 1.71 12.23
10/30/2022 7:15:00 AM 6.16 43.088 0.041 6.62 1.79 12.26
10/30/2022 7:30:00 AM 6.11 42.998 0.041 6.61 1.71 12.27
10/30/2022 7:45:00 AM 6.07 42.926 0.041 6.65 1.74 12.3
10/30/2022 8:00:00 AM 6.03 42.854 0.041 6.65 1.68 12.38
10/30/2022 8:15:00 AM 6.01 42.818 0.041 6.66 1.69 12.46
10/30/2022 8:30:00 AM 5.98 42.764 0.041 6.71 1.68 12.55
10/30/2022 8:45:00 AM 5.97 42.746 0.041 6.7 1.72 12.62
10/30/2022 9:00:00 AM 5.96 42.728 0.04 6.72 1.67 12.69
10/30/2022 9:15:00 AM 5.96 42.728 0.04 6.71 1.7 12.73
10/30/2022 9:30:00 AM 5.98 42.764 0.04 6.73 1.7 12.79
10/30/2022 9:45:00 AM 6.02 42.836 0.04 6.74 1.69 12.82
10/30/2022 10:00:00 AM 6.06 42.908 0.04 6.76 1.69 12.87
10/30/2022 10:15:00 AM 6.11 42.998 0.04 6.77 1.67 12.88
10/30/2022 10:30:00 AM 6.16 43.088 0.04 6.77 1.72 12.87
10/30/2022 10:45:00 AM 6.22 43.196 0.04 6.78 1.69 12.86
10/30/2022 11:00:00 AM 6.3 43.34 0.04 6.8 1.66 12.86
10/30/2022 11:15:00 AM 6.41 43.538 0.04 6.78 1.68 12.84
10/30/2022 11:30:00 AM 6.54 43.772 0.04 6.84 1.66 12.82
10/30/2022 11:45:00 AM 6.72 44.096 0.04 6.78 1.71 12.78
10/30/2022 12:00:00 PM 6.93 44.474 0.04 6.78 1.64 12.73
10/30/2022 12:15:00 PM 7.16 44.888 0.04 6.8 1.68 12.69
10/30/2022 12:30:00 PM 7.42 45.356 0.04 6.83 1.62 12.64
10/30/2022 12:45:00 PM 7.68 45.824 0.04 6.81 1.72 12.56
10/30/2022 1:00:00 PM 7.93 46.274 0.04 6.82 1.64 12.49
10/30/2022 1:15:00 PM 8.18 46.724 0.04 6.81 1.66 12.42
10/30/2022 1:30:00 PM 8.4 47.12 0.04 6.86 1.57 12.36
10/30/2022 1:45:00 PM 8.59 47.462 0.04 6.85 1.64 12.3
10/30/2022 2:00:00 PM 8.76 47.768 0.04 6.87 1.6 12.25
10/30/2022 2:15:00 PM 8.9 48.02 0.04 6.86 1.64 12.2
10/30/2022 2:30:00 PM 8.97 48.146 0.039 6.92 1.59 12.15
10/30/2022 2:45:00 PM 9.06 48.308 0.04 6.86 1.62 12.14
10/30/2022 3:00:00 PM 9.13 48.434 0.04 6.92 1.62 12.1
10/30/2022 3:15:00 PM 9.1 48.38 0.039 6.86 1.62 12.09
10/30/2022 3:30:00 PM 9.11 48.398 0.04 6.87 1.63 12.06
10/30/2022 3:45:00 PM 9.11 48.398 0.04 6.87 1.71 12.04
10/30/2022 4:00:00 PM 9.07 48.326 0.04 6.85 1.71 12.03
10/30/2022 4:15:00 PM 9.02 48.236 0.04 6.86 1.71 12
10/30/2022 4:30:00 PM 8.95 48.11 0.04 6.84 1.79 11.99
10/30/2022 4:45:00 PM 8.94 48.092 0.04 6.8 1.78 11.99
10/30/2022 5:00:00 PM 8.88 47.984 0.04 6.8 1.82 11.97
10/30/2022 5:15:00 PM 8.81 47.858 0.04 6.82 1.89 11.94
10/30/2022 5:30:00 PM 8.72 47.696 0.04 6.81 1.82 11.88
10/30/2022 5:45:00 PM 8.63 47.534 0.04 6.79 1.87 11.82
10/30/2022 6:00:00 PM 8.55 47.39 0.04 6.77 1.83 11.75
10/30/2022 6:15:00 PM 8.46 47.228 0.04 6.76 1.83 11.69
10/30/2022 6:30:00 PM 8.38 47.084 0.04 6.76 1.81 11.65
10/30/2022 6:45:00 PM 8.31 46.958 0.041 6.73 1.76 11.62
10/30/2022 7:00:00 PM 8.26 46.868 0.041 6.73 1.73 11.6
10/30/2022 7:15:00 PM 8.21 46.778 0.041 6.69 1.69 11.59
10/30/2022 7:30:00 PM 8.17 46.706 0.041 6.7 1.72 11.59
10/30/2022 7:45:00 PM 8.14 46.652 0.041 6.7 1.72 11.59
10/30/2022 8:00:00 PM 8.12 46.616 0.041 6.72 1.75 11.58
10/30/2022 8:15:00 PM 8.09 46.562 0.041 6.68 1.81 11.59
10/30/2022 8:30:00 PM 8.08 46.544 0.041 6.7 1.77 11.57
10/30/2022 8:45:00 PM 8.08 46.544 0.041 6.75 1.75 11.58
10/30/2022 9:00:00 PM 8.08 46.544 0.041 6.69 1.75 11.57
10/30/2022 9:15:00 PM 8.08 46.544 0.041 6.69 1.69 11.58
10/30/2022 9:30:00 PM 8.08 46.544 0.041 6.68 1.71 11.56
10/30/2022 9:45:00 PM 8.08 46.544 0.041 6.74 1.68 11.57
10/30/2022 10:00:00 PM 8.09 46.562 0.041 6.68 1.67 11.58
10/30/2022 10:15:00 PM 8.07 46.526 0.041 6.73 1.66 11.57
10/30/2022 10:30:00 PM 8.06 46.508 0.041 6.69 1.67 11.58
10/30/2022 10:45:00 PM 8.04 46.472 0.041 6.69 1.68 11.58
10/30/2022 11:00:00 PM 8.02 46.436 0.041 6.73 1.65 11.58
10/30/2022 11:15:00 PM 8 46.4 0.041 6.68 1.67 11.59
10/30/2022 11:30:00 PM 7.97 46.346 0.041 6.71 1.68 11.59
10/30/2022 11:45:00 PM 7.94 46.292 0.041 6.72 1.69 11.59
10/31/2022 12:00:00 AM 7.91 46.238 0.041 6.71 1.66 11.6
10/31/2022 12:15:00 AM 7.89 46.202 0.041 6.7 1.67 11.62
10/31/2022 12:30:00 AM 7.86 46.148 0.041 6.67 1.69 11.62
10/31/2022 12:45:00 AM 7.83 46.094 0.041 6.67 1.65 11.63
10/31/2022 1:00:00 AM 7.81 46.058 0.041 6.68 1.69 11.64
10/31/2022 1:15:00 AM 7.82 46.076 0.041 6.69 1.69 11.64
10/31/2022 1:30:00 AM 7.82 46.076 0.041 6.67 1.72 11.65
10/31/2022 1:45:00 AM 7.81 46.058 0.042 6.67 1.67 11.65
10/31/2022 2:00:00 AM 7.79 46.022 0.041 6.68 1.62 11.66
10/31/2022 2:15:00 AM 7.76 45.968 0.041 6.73 1.67 11.65
10/31/2022 2:30:00 AM 7.72 45.896 0.041 6.67 1.68 11.67
10/31/2022 2:45:00 AM 7.69 45.842 0.041 6.66 1.68 11.68
10/31/2022 3:00:00 AM 7.66 45.788 0.041 6.67 1.68 11.68
10/31/2022 3:15:00 AM 7.62 45.716 0.041 6.67 1.7 11.7
10/31/2022 3:30:00 AM 7.6 45.68 0.041 6.68 1.69 11.7
10/31/2022 3:45:00 AM 7.57 45.626 0.041 6.68 1.68 11.72
10/31/2022 4:00:00 AM 7.55 45.59 0.042 6.67 1.63 11.72
10/31/2022 4:15:00 AM 7.52 45.536 0.041 6.69 1.7 11.73
10/31/2022 4:30:00 AM 7.5 45.5 0.041 6.67 1.68 11.74
10/31/2022 4:45:00 AM 7.46 45.428 0.041 6.68 1.63 11.75
10/31/2022 5:00:00 AM 7.44 45.392 0.041 6.69 1.68 11.75
10/31/2022 5:15:00 AM 7.43 45.374 0.041 6.68 1.69 11.76
10/31/2022 5:30:00 AM 7.41 45.338 0.041 6.68 1.69 11.77
10/31/2022 5:45:00 AM 7.4 45.32 0.041 6.67 1.62 11.77
10/31/2022 6:00:00 AM 7.38 45.284 0.041 6.66 1.69 11.78
10/31/2022 6:15:00 AM 7.38 45.284 0.042 6.68 1.63 11.78
10/31/2022 6:30:00 AM 7.37 45.266 0.041 6.67 1.69 11.77
10/31/2022 6:45:00 AM 7.34 45.212 0.041 6.66 1.67 11.8
10/31/2022 7:00:00 AM 7.33 45.194 0.041 6.66 1.68 11.79
10/31/2022 7:15:00 AM 7.32 45.176 0.041 6.64 1.72 11.8
10/31/2022 7:30:00 AM 7.31 45.158 0.041 6.66 1.67 11.81
10/31/2022 7:45:00 AM 7.31 45.158 0.041 6.71 1.68 11.83
10/31/2022 8:00:00 AM 7.31 45.158 0.041 6.67 1.66 11.9
10/31/2022 8:15:00 AM 7.3 45.14 0.041 6.67 1.71 11.96
10/31/2022 8:30:00 AM 7.3 45.14 0.041 6.7 1.61 12.02
10/31/2022 8:45:00 AM 7.3 45.14 0.041 6.69 1.68 12.08
10/31/2022 9:00:00 AM 7.31 45.158 0.041 6.71 1.67 12.14
10/31/2022 9:15:00 AM 7.32 45.176 0.041 6.73 1.63 12.19
10/31/2022 9:30:00 AM 7.36 45.248 0.041 6.75 1.63 12.23
10/31/2022 9:45:00 AM 7.4 45.32 0.041 6.74 1.73 12.28
10/31/2022 10:00:00 AM 7.49 45.482 0.041 6.75 1.65 12.33
10/31/2022 10:15:00 AM 7.57 45.626 0.041 6.78 1.67 12.36
10/31/2022 10:30:00 AM 7.62 45.716 0.041 6.8 1.63 12.34
10/31/2022 10:45:00 AM 7.71 45.878 0.041 6.79 1.65 12.33
10/31/2022 11:00:00 AM 7.81 46.058 0.041 6.84 1.65 12.33
10/31/2022 11:15:00 AM 7.91 46.238 0.041 6.82 1.67 12.34
10/31/2022 11:30:00 AM 8.09 46.562 0.041 6.85 1.65 12.34
10/31/2022 11:45:00 AM 8.23 46.814 0.04 6.84 1.71 12.31
10/31/2022 12:00:00 PM 8.35 47.03 0.041 6.86 1.67 12.28
10/31/2022 12:15:00 PM 8.47 47.246 0.041 6.89 1.62 12.26
10/31/2022 12:30:00 PM 8.65 47.57 0.041 6.89 1.67 12.24
10/31/2022 12:45:00 PM 8.81 47.858 0.041 6.9 1.69 12.2
10/31/2022 1:00:00 PM 8.97 48.146 0.041 6.92 1.64 12.15
10/31/2022 1:15:00 PM 9.09 48.362 0.041 6.91 1.64 12.11
10/31/2022 1:30:00 PM 9.2 48.56 0.041 6.93 1.61 12.06
10/31/2022 1:45:00 PM 9.28 48.704 0.041 6.9 1.66 12.04
10/31/2022 2:00:00 PM 9.33 48.794 0.041 6.9 1.62 12.01
10/31/2022 2:15:00 PM 9.39 48.902 0.04 6.92 1.62 12
10/31/2022 2:30:00 PM 9.46 49.028 0.04 6.93 1.62 11.99
10/31/2022 2:45:00 PM 9.51 49.118 0.04 6.91 1.66 11.96
10/31/2022 3:00:00 PM 9.55 49.19 0.04 6.92 1.58 11.93
10/31/2022 3:15:00 PM 9.6 49.28 0.04 6.92 1.67 11.91
10/31/2022 3:30:00 PM 9.68 49.424 0.04 6.92 1.65 11.9
10/31/2022 3:45:00 PM 9.74 49.532 0.04 6.93 1.64 11.88
10/31/2022 4:00:00 PM 9.76 49.568 0.04 6.96 1.73 11.82
10/31/2022 4:15:00 PM 9.78 49.604 0.041 6.91 1.73 11.76
10/31/2022 4:30:00 PM 9.82 49.676 0.041 6.89 1.74 11.74
10/31/2022 4:45:00 PM 9.86 49.748 0.041 6.89 1.84 11.71
10/31/2022 5:00:00 PM 9.87 49.766 0.041 6.88 1.74 11.63
10/31/2022 5:15:00 PM 9.88 49.784 0.041 6.91 1.7 11.53
10/31/2022 5:30:00 PM 9.88 49.784 0.041 6.86 1.7 11.42
10/31/2022 5:45:00 PM 9.89 49.802 0.041 6.86 1.67 11.34
10/31/2022 6:00:00 PM 9.89 49.802 0.041 6.78 1.74 11.25
10/31/2022 6:15:00 PM 9.89 49.802 0.041 6.76 1.79 11.18
10/31/2022 6:30:00 PM 9.89 49.802 0.041 6.75 1.76 11.12
10/31/2022 6:45:00 PM 9.89 49.802 0.041 6.74 1.93 11.09
10/31/2022 7:00:00 PM 9.9 49.82 0.041 6.74 1.89 11.06
10/31/2022 7:15:00 PM 9.9 49.82 0.041 6.75 1.71 11.05
10/31/2022 7:30:00 PM 9.91 49.838 0.042 6.76 1.78 11.03
10/31/2022 7:45:00 PM 9.91 49.838 0.042 6.71 1.63 11.01
10/31/2022 8:00:00 PM 9.91 49.838 0.042 6.72 1.69 11.01
10/31/2022 8:15:00 PM 9.91 49.838 0.041 6.76 1.67 11
10/31/2022 8:30:00 PM 9.92 49.856 0.041 6.71 1.71 11.01
10/31/2022 8:45:00 PM 9.93 49.874 0.042 6.76 1.65 10.99
10/31/2022 9:00:00 PM 9.94 49.892 0.042 6.69 1.68 10.99
10/31/2022 9:15:00 PM 9.95 49.91 0.042 6.7 1.71 10.99
10/31/2022 9:30:00 PM 9.95 49.91 0.042 6.71 1.69 10.98
10/31/2022 9:45:00 PM 9.96 49.928 0.042 6.73 1.66 10.98
10/31/2022 10:00:00 PM 9.97 49.946 0.042 6.7 1.69 10.97
10/31/2022 10:15:00 PM 9.98 49.964 0.042 6.72 1.64 10.96
10/31/2022 10:30:00 PM 9.99 49.982 0.042 6.69 1.74 10.97
10/31/2022 10:45:00 PM 10 50 0.042 6.68 1.62 10.96
10/31/2022 11:00:00 PM 10 50 0.042 6.67 1.69 10.96
10/31/2022 11:15:00 PM 10.01 50.018 0.042 6.69 1.71 10.96
10/31/2022 11:30:00 PM 10.02 50.036 0.042 6.68 1.65 10.96
10/31/2022 11:45:00 PM 10.02 50.036 0.042 6.69 1.68 10.95
11/1/2022 12:00:00 AM 10.03 50.054 0.042 6.67 1.63 10.95
11/1/2022 12:15:00 AM 10.03 50.054 0.042 6.67 1.67 10.95
11/1/2022 12:30:00 AM 10.03 50.054 0.042 6.67 1.65 10.94
11/1/2022 12:45:00 AM 10.04 50.072 0.042 6.67 1.63 10.94
11/1/2022 1:00:00 AM 10.04 50.072 0.042 6.69 1.67 10.94
11/1/2022 1:15:00 AM 10.04 50.072 0.042 6.72 1.66 10.91
11/1/2022 1:30:00 AM 10.04 50.072 0.042 6.67 1.74 10.94
11/1/2022 1:45:00 AM 10.05 50.09 0.043 6.68 1.56 10.93
11/1/2022 2:00:00 AM 10.05 50.09 0.042 6.63 1.68 10.93
11/1/2022 2:15:00 AM 10.05 50.09 0.042 6.7 1.72 10.93
11/1/2022 2:30:00 AM 10.06 50.108 0.042 6.63 1.73 10.93
11/1/2022 2:45:00 AM 10.06 50.108 0.042 6.64 1.65 10.93
11/1/2022 3:00:00 AM 10.06 50.108 0.042 6.66 1.67 10.93
11/1/2022 3:15:00 AM 10.06 50.108 0.042 6.66 1.76 10.92
11/1/2022 3:30:00 AM 10.07 50.126 0.042 6.7 1.69 10.93
11/1/2022 3:45:00 AM 10.07 50.126 0.042 6.65 1.74 10.91
11/1/2022 4:00:00 AM 10.07 50.126 0.042 6.65 1.77 10.93
11/1/2022 4:15:00 AM 10.07 50.126 0.042 6.7 1.67 10.92
11/1/2022 4:30:00 AM 10.07 50.126 0.042 6.66 1.72 10.92
11/1/2022 4:45:00 AM 10.07 50.126 0.042 6.69 1.68 10.92
11/1/2022 5:00:00 AM 10.07 50.126 0.042 6.67 1.69 10.93
11/1/2022 5:15:00 AM 10.08 50.144 0.042 6.67 1.81 10.93
11/1/2022 5:30:00 AM 10.08 50.144 0.042 6.66 1.74 10.93
11/1/2022 5:45:00 AM 10.08 50.144 0.042 6.64 1.82 10.93
11/1/2022 6:00:00 AM 10.07 50.126 0.042 6.64 1.75 10.93
11/1/2022 6:15:00 AM 10.08 50.144 0.042 6.68 1.73 10.93
11/1/2022 6:30:00 AM 10.08 50.144 0.042 6.65 1.75 10.93
11/1/2022 6:45:00 AM 10.08 50.144 0.042 6.63 1.79 10.93
11/1/2022 7:00:00 AM 10.08 50.144 0.042 6.69 1.68 10.93
11/1/2022 7:15:00 AM 10.07 50.126 0.042 6.63 1.69 10.93
11/1/2022 7:30:00 AM 10.08 50.144 0.042 6.63 1.82 10.93
11/1/2022 7:45:00 AM 10.08 50.144 0.042 6.69 1.72 10.94
11/1/2022 8:00:00 AM 10.08 50.144 0.042 6.64 1.77 10.95
11/1/2022 8:15:00 AM 10.09 50.162 0.042 6.66 1.69 10.98
11/1/2022 8:30:00 AM 10.1 50.18 0.042 6.7 1.69 11.06
11/1/2022 8:45:00 AM 10.12 50.216 0.042 6.66 1.7 11.16
11/1/2022 9:00:00 AM 10.15 50.27 0.042 6.69 2 11.23
11/1/2022 9:15:00 AM 10.17 50.306 0.042 6.73 1.69 11.28
11/1/2022 9:30:00 AM 10.2 50.36 0.042 6.7 1.72 11.34
11/1/2022 9:45:00 AM 10.23 50.414 0.042 6.75 1.72 11.39
11/1/2022 10:00:00 AM 10.29 50.522 0.042 6.81 1.67 11.49
11/1/2022 10:15:00 AM 10.32 50.576 0.042 6.8 1.93 11.47
11/1/2022 10:30:00 AM 10.33 50.594 0.042 6.82 1.69 11.42
11/1/2022 10:45:00 AM 10.34 50.612 0.042 6.79 1.68 11.35
11/1/2022 11:00:00 AM 10.37 50.666 0.042 6.79 1.68 11.4
11/1/2022 11:15:00 AM 10.41 50.738 0.042 6.84 1.67 11.42
11/1/2022 11:30:00 AM 10.44 50.792 0.042 6.8 1.72 11.47
11/1/2022 11:45:00 AM 10.47 50.846 0.042 6.84 1.67 11.4
11/1/2022 12:00:00 PM 10.52 50.936 0.042 6.82 1.66 11.41
11/1/2022 12:15:00 PM 10.58 51.044 0.041 6.84 1.76 11.43
11/1/2022 12:30:00 PM 10.6 51.08 0.041 6.84 1.74 11.4
11/1/2022 12:45:00 PM 10.63 51.134 0.041 6.88 1.79 11.41
11/1/2022 1:00:00 PM 10.7 51.26 0.041 6.86 1.66 11.47
11/1/2022 1:15:00 PM 10.74 51.332 0.041 6.85 1.68 11.46
11/1/2022 1:30:00 PM 10.77 51.386 0.041 6.84 1.69 11.48
11/1/2022 1:45:00 PM 10.83 51.494 0.041 6.86 1.71 11.5
11/1/2022 2:00:00 PM 10.87 51.566 0.041 6.89 1.69 11.5
11/1/2022 2:15:00 PM 10.89 51.602 0.041 6.89 1.91 11.47
11/1/2022 2:30:00 PM 10.95 51.71 0.041 6.88 1.81 11.48
11/1/2022 2:45:00 PM 11.02 51.836 0.042 6.91 1.88 11.5
11/1/2022 3:00:00 PM 11.04 51.872 0.042 6.94 2.65 11.47
11/1/2022 3:15:00 PM 11.07 51.926 0.043 6.95 3.25 11.45
11/1/2022 3:30:00 PM 11.12 52.016 0.044 6.97 4.44 11.45
11/1/2022 3:45:00 PM 11.23 52.214 0.045 7 5.21 11.45
11/1/2022 4:00:00 PM 11.16 52.088 0.045 6.98 5.22 11.33
11/1/2022 4:15:00 PM 11.16 52.088 0.045 6.94 4.32 11.3
11/1/2022 4:30:00 PM 11.15 52.07 0.045 6.94 4.25 11.22
11/1/2022 4:45:00 PM 11.14 52.052 0.045 6.91 4.08 11.17
11/1/2022 5:00:00 PM 11.14 52.052 0.045 6.93 4.1 11.15
11/1/2022 5:15:00 PM 11.14 52.052 0.045 6.88 3.62 11.1
11/1/2022 5:30:00 PM 11.14 52.052 0.046 6.87 3.36 11.05
11/1/2022 5:45:00 PM 11.12 52.016 0.046 6.83 3.04 10.97
11/1/2022 6:00:00 PM 11.11 51.998 0.046 6.84 2.76 10.9
11/1/2022 6:15:00 PM 11.1 51.98 0.047 6.79 2.62 10.84
11/1/2022 6:30:00 PM 11.06 51.908 0.046 6.79 2.47 10.8
11/1/2022 6:45:00 PM 11.03 51.854 0.046 6.82 2.47 10.79
11/1/2022 7:00:00 PM 11.02 51.836 0.047 6.76 2.48 10.77
11/1/2022 7:15:00 PM 11.01 51.818 0.047 6.73 2.31 10.76
11/1/2022 7:30:00 PM 10.99 51.782 0.047 6.76 2.42 10.76
11/1/2022 7:45:00 PM 10.98 51.764 0.047 6.75 2.25 10.76
11/1/2022 8:00:00 PM 10.96 51.728 0.047 6.77 2.23 10.76
11/1/2022 8:15:00 PM 10.94 51.692 0.048 6.76 2.25 10.76
11/1/2022 8:30:00 PM 10.93 51.674 0.047 6.75 2.22 10.76
11/1/2022 8:45:00 PM 10.92 51.656 0.047 6.77 2.22 10.77
11/1/2022 9:00:00 PM 10.9 51.62 0.047 6.77 2.18 10.77
11/1/2022 9:15:00 PM 10.88 51.584 0.047 6.75 2.2 10.78
11/1/2022 9:30:00 PM 10.85 51.53 0.047 6.74 2.14 10.78
11/1/2022 9:45:00 PM 10.82 51.476 0.047 6.73 2.08 10.8
11/1/2022 10:00:00 PM 10.79 51.422 0.047 6.77 2.06 10.81
11/1/2022 10:15:00 PM 10.77 51.386 0.046 6.77 2.09 10.82
11/1/2022 10:30:00 PM 10.74 51.332 0.047 6.76 2.03 10.83
11/1/2022 10:45:00 PM 10.73 51.314 0.046 6.77 1.98 10.83
11/1/2022 11:00:00 PM 10.72 51.296 0.046 6.74 2.03 10.84
11/1/2022 11:15:00 PM 10.69 51.242 0.046 6.72 1.93 10.85
11/1/2022 11:30:00 PM 10.66 51.188 0.046 6.72 2.12 10.86
11/1/2022 11:45:00 PM 10.62 51.116 0.046 6.73 1.94 10.87
11/2/2022 12:00:00 AM 10.59 51.062 0.046 6.75 2.03 10.87
11/2/2022 12:15:00 AM 10.54 50.972 0.046 6.74 2.06 10.88
11/2/2022 12:30:00 AM 10.51 50.918 0.046 6.72 1.97 10.91
11/2/2022 12:45:00 AM 10.47 50.846 0.046 6.73 1.88 10.91
11/2/2022 1:00:00 AM 10.44 50.792 0.046 6.76 1.93 10.92
11/2/2022 1:15:00 AM 10.4 50.72 0.046 6.77 1.93 10.94
11/2/2022 1:30:00 AM 10.37 50.666 0.045 6.72 1.93 10.95
11/2/2022 1:45:00 AM 10.32 50.576 0.045 6.74 1.91 10.96
11/2/2022 2:00:00 AM 10.27 50.486 0.045 6.72 1.89 10.97
11/2/2022 2:15:00 AM 10.24 50.432 0.045 6.71 1.99 10.99
11/2/2022 2:30:00 AM 10.2 50.36 0.045 6.74 1.92 11
11/2/2022 2:45:00 AM 10.18 50.324 0.045 6.74 1.9 11.01
11/2/2022 3:00:00 AM 10.15 50.27 0.045 6.74 1.94 11.02
11/2/2022 3:15:00 AM 10.12 50.216 0.045 6.73 2.18 11.03
11/2/2022 3:30:00 AM 10.11 50.198 0.045 6.74 1.93 11.04
11/2/2022 3:45:00 AM 10.09 50.162 0.044 6.77 2.1 11.04
11/2/2022 4:00:00 AM 10.07 50.126 0.044 6.7 2.07 11.05
11/2/2022 4:15:00 AM 10.05 50.09 0.044 6.71 2.18 11.06
11/2/2022 4:30:00 AM 10.03 50.054 0.044 6.73 2.06 11.07
11/2/2022 4:45:00 AM 10.02 50.036 0.044 6.7 2.1 11.08
11/2/2022 5:00:00 AM 10.02 50.036 0.044 6.71 2.08 11.09
11/2/2022 5:15:00 AM 10.03 50.054 0.044 6.73 2.06 11.08
11/2/2022 5:30:00 AM 10.05 50.09 0.044 6.76 1.98 11.08
11/2/2022 5:45:00 AM 10.07 50.126 0.044 6.72 2.01 11.08
11/2/2022 6:00:00 AM 10.08 50.144 0.044 6.75 2.04 11.08
11/2/2022 6:15:00 AM 10.07 50.126 0.044 6.72 1.93 11.08
11/2/2022 6:30:00 AM 10.06 50.108 0.044 6.7 1.93 11.09
11/2/2022 6:45:00 AM 10.05 50.09 0.044 6.72 1.99 11.09
11/2/2022 7:00:00 AM 10.05 50.09 0.044 6.72 1.96 11.09
11/2/2022 7:15:00 AM 10.04 50.072 0.044 6.73 2 11.1
11/2/2022 7:30:00 AM 10.04 50.072 0.044 6.7 1.97 11.1
11/2/2022 7:45:00 AM 10.04 50.072 0.044 6.72 2.06 11.11
11/2/2022 8:00:00 AM 10.03 50.054 0.044 6.72 1.99 11.16
11/2/2022 8:15:00 AM 10.03 50.054 0.043 6.74 1.94 11.23
11/2/2022 8:30:00 AM 10.02 50.036 0.043 6.75 2.07 11.3
11/2/2022 8:45:00 AM 10.01 50.018 0.043 6.76 2.07 11.39
11/2/2022 9:00:00 AM 10 50 0.043 6.78 1.98 11.46
11/2/2022 9:15:00 AM 10 50 0.043 6.78 1.92 11.51
11/2/2022 9:30:00 AM 10 50 0.043 6.84 1.9 11.57
11/2/2022 9:45:00 AM 10 50 0.043 6.83 1.92 11.6
11/2/2022 10:00:00 AM 10.03 50.054 0.043 6.81 1.89 11.65
11/2/2022 10:15:00 AM 10.07 50.126 0.043 6.84 1.91 11.66
11/2/2022 10:30:00 AM 10.11 50.198 0.043 6.85 2.01 11.69
11/2/2022 10:45:00 AM 10.16 50.288 0.043 6.9 1.84 11.7
11/2/2022 11:00:00 AM 10.24 50.432 0.043 6.91 1.91 11.7
11/2/2022 11:15:00 AM 10.32 50.576 0.043 6.9 1.84 11.69
11/2/2022 11:30:00 AM 10.44 50.792 0.043 6.87 1.81 11.7
11/2/2022 11:45:00 AM 10.58 51.044 0.043 6.93 1.78 11.69
11/2/2022 12:00:00 PM 10.75 51.35 0.043 6.95 1.76 11.67
11/2/2022 12:15:00 PM 10.92 51.656 0.042 6.94 1.81 11.66
11/2/2022 12:30:00 PM 11.1 51.98 0.042 6.92 1.83 11.62
11/2/2022 12:45:00 PM 11.29 52.322 0.042 6.92 1.81 11.6
11/2/2022 1:00:00 PM 11.47 52.646 0.042 6.94 1.85 11.56
11/2/2022 1:15:00 PM 11.64 52.952 0.042 6.93 1.76 11.53
11/2/2022 1:30:00 PM 11.78 53.204 0.042 6.97 1.83 11.49
11/2/2022 1:45:00 PM 11.89 53.402 0.042 6.95 1.84 11.45
11/2/2022 2:00:00 PM 11.97 53.546 0.042 6.96 1.84 11.43
11/2/2022 2:15:00 PM 12.04 53.672 0.042 6.95 1.87 11.41
11/2/2022 2:30:00 PM 12.07 53.726 0.042 7 1.76 11.37
11/2/2022 2:45:00 PM 12.1 53.78 0.042 7 1.76 11.35
11/2/2022 3:00:00 PM 12.1 53.78 0.042 6.96 1.8 11.34
11/2/2022 3:15:00 PM 12.08 53.744 0.042 6.95 1.77 11.32
11/2/2022 3:30:00 PM 12.05 53.69 0.042 6.99 1.82 11.31
11/2/2022 3:45:00 PM 12 53.6 0.042 6.97 1.73 11.3
11/2/2022 4:00:00 PM 11.94 53.492 0.042 6.93 1.73 11.27
11/2/2022 4:15:00 PM 11.87 53.366 0.042 6.93 1.77 11.26
11/2/2022 4:30:00 PM 11.8 53.24 0.042 6.94 1.84 11.23
11/2/2022 4:45:00 PM 11.73 53.114 0.042 6.9 1.71 11.19
11/2/2022 5:00:00 PM 11.64 52.952 0.042 6.88 1.71 11.15
11/2/2022 5:15:00 PM 11.56 52.808 0.042 6.88 1.67 11.12
11/2/2022 5:30:00 PM 11.47 52.646 0.043 6.83 1.76 11.05
11/2/2022 5:45:00 PM 11.38 52.484 0.043 6.84 1.77 10.99
11/2/2022 6:00:00 PM 11.29 52.322 0.043 6.78 1.72 10.93
11/2/2022 6:15:00 PM 11.21 52.178 0.043 6.76 1.72 10.89
11/2/2022 6:30:00 PM 11.14 52.052 0.043 6.76 1.73 10.84
11/2/2022 6:45:00 PM 11.08 51.944 0.043 6.74 1.8 10.83
11/2/2022 7:00:00 PM 11.02 51.836 0.043 6.78 1.7 10.82
11/2/2022 7:15:00 PM 10.97 51.746 0.043 6.73 1.77 10.81
11/2/2022 7:30:00 PM 10.92 51.656 0.043 6.77 1.75 10.82
11/2/2022 7:45:00 PM 10.88 51.584 0.043 6.71 1.73 10.82
11/2/2022 8:00:00 PM 10.84 51.512 0.043 6.72 1.75 10.82
11/2/2022 8:15:00 PM 10.8 51.44 0.043 6.72 1.72 10.84
11/2/2022 8:30:00 PM 10.76 51.368 0.043 6.74 2.03 10.83
11/2/2022 8:45:00 PM 10.72 51.296 0.043 6.69 1.85 10.85
11/2/2022 9:00:00 PM 10.68 51.224 0.043 6.69 1.78 10.86
11/2/2022 9:15:00 PM 10.64 51.152 0.043 6.69 1.84 10.88
11/2/2022 9:30:00 PM 10.6 51.08 0.043 6.66 1.75 10.87
11/2/2022 9:45:00 PM 10.56 51.008 0.043 6.73 1.75 10.89
11/2/2022 10:00:00 PM 10.51 50.918 0.043 6.74 1.73 10.92
11/2/2022 10:15:00 PM 10.47 50.846 0.043 6.69 1.84 10.93
11/2/2022 10:30:00 PM 10.42 50.756 0.044 6.68 1.85 10.93
11/2/2022 10:45:00 PM 10.37 50.666 0.043 6.68 1.77 10.94
11/2/2022 11:00:00 PM 10.32 50.576 0.043 6.67 1.77 10.97
11/2/2022 11:15:00 PM 10.28 50.504 0.043 6.7 1.81 10.98
11/2/2022 11:30:00 PM 10.23 50.414 0.043 6.7 1.76 10.99
11/2/2022 11:45:00 PM 10.18 50.324 0.043 6.69 1.74 11.01
11/3/2022 12:00:00 AM 10.14 50.252 0.043 6.71 1.68 11.02
11/3/2022 12:15:00 AM 10.09 50.162 0.043 6.69 1.78 11.02
11/3/2022 12:30:00 AM 10.04 50.072 0.043 6.74 1.73 11.05
11/3/2022 12:45:00 AM 10 50 0.043 6.68 1.78 11.06
11/3/2022 1:00:00 AM 9.95 49.91 0.043 6.68 1.86 11.08
11/3/2022 1:15:00 AM 9.9 49.82 0.043 6.67 1.74 11.08
11/3/2022 1:30:00 AM 9.85 49.73 0.043 6.68 1.81 11.1
11/3/2022 1:45:00 AM 9.8 49.64 0.043 6.71 1.78 11.12
11/3/2022 2:00:00 AM 9.75 49.55 0.043 6.68 1.78 11.13
11/3/2022 2:15:00 AM 9.7 49.46 0.043 6.72 1.83 11.14
11/3/2022 2:30:00 AM 9.66 49.388 0.043 6.66 1.7 11.17
11/3/2022 2:45:00 AM 9.61 49.298 0.043 6.67 1.75 11.18
11/3/2022 3:00:00 AM 9.56 49.208 0.043 6.66 1.74 11.2
11/3/2022 3:15:00 AM 9.51 49.118 0.043 6.7 1.76 11.21
11/3/2022 3:30:00 AM 9.46 49.028 0.043 6.68 1.81 11.22
11/3/2022 3:45:00 AM 9.41 48.938 0.043 6.69 1.76 11.24
11/3/2022 4:00:00 AM 9.36 48.848 0.043 6.71 1.9 11.25
11/3/2022 4:15:00 AM 9.32 48.776 0.043 6.7 1.73 11.27
11/3/2022 4:30:00 AM 9.27 48.686 0.043 6.7 1.87 11.28
11/3/2022 4:45:00 AM 9.22 48.596 0.043 6.67 1.76 11.28
11/3/2022 5:00:00 AM 9.17 48.506 0.043 6.71 1.73 11.31
11/3/2022 5:15:00 AM 9.13 48.434 0.043 6.72 1.73 11.31
11/3/2022 5:30:00 AM 9.09 48.362 0.043 6.72 1.78 11.33
11/3/2022 5:45:00 AM 9.05 48.29 0.043 6.73 1.75 11.35
11/3/2022 6:00:00 AM 9.01 48.218 0.044 6.7 1.78 11.36
11/3/2022 6:15:00 AM 8.96 48.128 0.043 6.67 1.78 11.38
11/3/2022 6:30:00 AM 8.92 48.056 0.043 6.67 1.71 11.39
11/3/2022 6:45:00 AM 8.87 47.966 0.043 6.67 1.78 11.4
11/3/2022 7:00:00 AM 8.82 47.876 0.044 6.68 1.73 11.42
11/3/2022 7:15:00 AM 8.78 47.804 0.043 6.69 1.78 11.44
11/3/2022 7:30:00 AM 8.75 47.75 0.043 6.68 1.78 11.46
11/3/2022 7:45:00 AM 8.71 47.678 0.043 6.67 1.85 11.48
11/3/2022 8:00:00 AM 8.68 47.624 0.043 6.68 1.78 11.53
11/3/2022 8:15:00 AM 8.65 47.57 0.043 6.71 1.79 11.63
11/3/2022 8:30:00 AM 8.63 47.534 0.043 6.7 1.76 11.72
11/3/2022 8:45:00 AM 8.61 47.498 0.043 6.73 1.73 11.79
11/3/2022 9:00:00 AM 8.57 47.426 0.043 6.72 1.68 11.87
11/3/2022 9:15:00 AM 8.56 47.408 0.043 6.77 1.76 11.93
11/3/2022 9:30:00 AM 8.54 47.372 0.043 6.73 1.77 11.97
11/3/2022 9:45:00 AM 8.54 47.372 0.043 6.77 1.8 12.01
11/3/2022 10:00:00 AM 8.55 47.39 0.042 6.81 1.69 12.04
11/3/2022 10:15:00 AM 8.57 47.426 0.042 6.77 1.67 12.07
11/3/2022 10:30:00 AM 8.61 47.498 0.042 6.79 1.74 12.09
11/3/2022 10:45:00 AM 8.66 47.588 0.042 6.78 1.71 12.1
11/3/2022 11:00:00 AM 8.73 47.714 0.042 6.8 1.69 12.12
11/3/2022 11:15:00 AM 8.83 47.894 0.042 6.82 1.64 12.11
11/3/2022 11:30:00 AM 8.94 48.092 0.042 6.83 1.7 12.11
11/3/2022 11:45:00 AM 9.11 48.398 0.042 6.86 1.76 12.1
11/3/2022 12:00:00 PM 9.3 48.74 0.042 6.86 1.74 12.09
11/3/2022 12:15:00 PM 9.51 49.118 0.042 6.89 1.66 12.06
11/3/2022 12:30:00 PM 9.74 49.532 0.042 6.88 1.63 12.02
11/3/2022 12:45:00 PM 9.96 49.928 0.042 6.91 1.67 11.98
11/3/2022 1:00:00 PM 10.17 50.306 0.042 6.91 1.66 11.93
11/3/2022 1:15:00 PM 10.38 50.684 0.042 6.93 1.63 11.88
11/3/2022 1:30:00 PM 10.56 51.008 0.042 6.93 1.67 11.84
11/3/2022 1:45:00 PM 10.72 51.296 0.042 6.93 1.66 11.79
11/3/2022 2:00:00 PM 10.84 51.512 0.042 6.92 1.65 11.76
11/3/2022 2:15:00 PM 10.93 51.674 0.042 6.98 1.63 11.72
11/3/2022 2:30:00 PM 10.99 51.782 0.042 6.93 1.62 11.69
11/3/2022 2:45:00 PM 11.03 51.854 0.042 6.96 1.65 11.66
11/3/2022 3:00:00 PM 11.05 51.89 0.042 6.93 1.64 11.64
11/3/2022 3:15:00 PM 11.05 51.89 0.042 6.98 1.66 11.62
11/3/2022 3:30:00 PM 11.02 51.836 0.042 6.92 1.64 11.61
11/3/2022 3:45:00 PM 10.99 51.782 0.042 6.94 1.62 11.58
11/3/2022 4:00:00 PM 10.93 51.674 0.042 6.96 1.67 11.57
11/3/2022 4:15:00 PM 10.87 51.566 0.042 6.92 1.66 11.54
11/3/2022 4:30:00 PM 10.81 51.458 0.042 6.95 2.01 11.5
11/3/2022 4:45:00 PM 10.73 51.314 0.042 6.93 1.79 11.48
11/3/2022 5:00:00 PM 10.66 51.188 0.042 6.92 1.65 11.43
11/3/2022 5:15:00 PM 10.59 51.062 0.042 6.86 1.65 11.39
11/3/2022 5:30:00 PM 10.5 50.9 0.042 6.86 1.78 11.32
11/3/2022 5:45:00 PM 10.41 50.738 0.042 6.84 1.64 11.29
11/3/2022 6:00:00 PM 10.32 50.576 0.042 6.81 1.81 11.23
11/3/2022 6:15:00 PM 10.22 50.396 0.042 6.79 1.77 11.18
11/3/2022 6:30:00 PM 10.15 50.27 0.043 6.8 1.75 11.15
11/3/2022 6:45:00 PM 10.07 50.126 0.043 6.79 1.72 11.13
11/3/2022 7:00:00 PM 10.01 50.018 0.043 6.76 1.74 11.11
11/3/2022 7:15:00 PM 9.95 49.91 0.043 6.74 1.69 11.11
11/3/2022 7:30:00 PM 9.89 49.802 0.043 6.74 1.77 11.11
11/3/2022 7:45:00 PM 9.85 49.73 0.043 6.74 1.69 11.12
11/3/2022 8:00:00 PM 9.82 49.676 0.043 6.76 1.74 11.12
11/3/2022 8:15:00 PM 9.79 49.622 0.043 6.76 1.68 11.12
11/3/2022 8:30:00 PM 9.75 49.55 0.043 6.71 1.75 11.12
11/3/2022 8:45:00 PM 9.72 49.496 0.043 6.7 1.84 11.1
11/3/2022 9:00:00 PM 9.7 49.46 0.043 6.72 1.7 11.13
11/3/2022 9:15:00 PM 9.67 49.406 0.043 6.71 1.74 11.14
11/3/2022 9:30:00 PM 9.64 49.352 0.043 6.7 1.76 11.15
11/3/2022 9:45:00 PM 9.61 49.298 0.043 6.69 1.66 11.15
11/3/2022 10:00:00 PM 9.57 49.226 0.043 6.74 1.7 11.17
11/3/2022 10:15:00 PM 9.54 49.172 0.043 6.74 1.7 11.17
11/3/2022 10:30:00 PM 9.5 49.1 0.043 6.73 1.75 11.2
11/3/2022 10:45:00 PM 9.47 49.046 0.043 6.74 2.52 11.21
11/3/2022 11:00:00 PM 9.43 48.974 0.043 6.74 1.7 11.22
11/3/2022 11:15:00 PM 9.39 48.902 0.043 6.7 1.88 11.23
11/3/2022 11:30:00 PM 9.35 48.83 0.043 6.67 1.69 11.24
11/3/2022 11:45:00 PM 9.31 48.758 0.043 6.74 1.67 11.24
11/4/2022 12:00:00 AM 9.27 48.686 0.043 6.69 1.7 11.26
11/4/2022 12:15:00 AM 9.23 48.614 0.043 6.68 1.72 11.27
11/4/2022 12:30:00 AM 9.19 48.542 0.043 6.69 1.73 11.28
11/4/2022 12:45:00 AM 9.15 48.47 0.043 6.71 1.79 11.29
11/4/2022 1:00:00 AM 9.11 48.398 0.043 6.73 1.71 11.31
11/4/2022 1:15:00 AM 9.07 48.326 0.043 6.71 1.81 11.32
11/4/2022 1:30:00 AM 9.03 48.254 0.043 6.69 1.68 11.32
11/4/2022 1:45:00 AM 8.99 48.182 0.043 6.69 1.71 11.34
11/4/2022 2:00:00 AM 8.95 48.11 0.043 6.74 1.77 11.36
11/4/2022 2:15:00 AM 8.91 48.038 0.043 6.7 1.71 11.37
11/4/2022 2:30:00 AM 8.87 47.966 0.043 6.71 1.8 11.38
11/4/2022 2:45:00 AM 8.83 47.894 0.043 6.74 1.71 11.39
11/4/2022 3:00:00 AM 8.79 47.822 0.043 6.71 1.71 11.4
11/4/2022 3:15:00 AM 8.75 47.75 0.043 6.71 1.75 11.41
11/4/2022 3:30:00 AM 8.71 47.678 0.043 6.69 1.75 11.42
11/4/2022 3:45:00 AM 8.67 47.606 0.043 6.71 1.8 11.43
11/4/2022 4:00:00 AM 8.63 47.534 0.043 6.69 1.78 11.45
11/4/2022 4:15:00 AM 8.59 47.462 0.043 6.69 1.72 11.46
11/4/2022 4:30:00 AM 8.56 47.408 0.043 6.73 1.73 11.48
11/4/2022 4:45:00 AM 8.53 47.354 0.043 6.73 1.74 11.49
11/4/2022 5:00:00 AM 8.49 47.282 0.043 6.68 1.72 11.5
11/4/2022 5:15:00 AM 8.46 47.228 0.043 6.68 1.75 11.51
11/4/2022 5:30:00 AM 8.43 47.174 0.043 6.7 1.73 11.52
11/4/2022 5:45:00 AM 8.39 47.102 0.043 6.69 1.82 11.54
11/4/2022 6:00:00 AM 8.36 47.048 0.043 6.7 1.8 11.54
11/4/2022 6:15:00 AM 8.33 46.994 0.043 6.73 2.17 11.55
11/4/2022 6:30:00 AM 8.29 46.922 0.043 6.74 1.81 11.56
11/4/2022 6:45:00 AM 8.26 46.868 0.043 6.71 1.89 11.58
11/4/2022 7:00:00 AM 8.23 46.814 0.043 6.7 1.83 11.6
11/4/2022 7:15:00 AM 8.2 46.76 0.043 6.69 1.79 11.61
11/4/2022 7:30:00 AM 8.17 46.706 0.043 6.69 1.94 11.61
11/4/2022 7:45:00 AM 8.14 46.652 0.043 6.73 1.76 11.65
11/4/2022 8:00:00 AM 8.13 46.634 0.043 6.69 1.72 11.72
11/4/2022 8:15:00 AM 8.12 46.616 0.043 6.71 1.7 11.82
11/4/2022 8:30:00 AM 8.12 46.616 0.043 6.73 1.66 11.93
11/4/2022 8:45:00 AM 8.14 46.652 0.043 6.73 1.79 12.02
11/4/2022 9:00:00 AM 8.15 46.67 0.043 6.75 1.65 12.08
11/4/2022 9:15:00 AM 8.17 46.706 0.043 6.81 1.78 12.14
11/4/2022 9:30:00 AM 8.2 46.76 0.043 6.82 2.02 12.17
11/4/2022 9:45:00 AM 8.24 46.832 0.043 6.79 1.77 12.21
11/4/2022 10:00:00 AM 8.29 46.922 0.043 6.81 1.57 12.24
11/4/2022 10:15:00 AM 8.36 47.048 0.043 6.82 1.6 12.25
11/4/2022 10:30:00 AM 8.44 47.192 0.042 6.88 1.54 12.26
11/4/2022 10:45:00 AM 8.56 47.408 0.042 6.86 1.52 12.27
11/4/2022 11:00:00 AM 8.68 47.624 0.042 6.87 1.55 12.26
11/4/2022 11:15:00 AM 8.79 47.822 0.042 6.87 1.53 12.23
11/4/2022 11:30:00 AM 8.93 48.074 0.042 6.9 1.46 12.21
11/4/2022 11:45:00 AM 9.1 48.38 0.042 6.92 1.44 12.19
11/4/2022 12:00:00 PM 9.29 48.722 0.042 6.94 1.46 12.17
11/4/2022 12:15:00 PM 9.49 49.082 0.042 6.94 1.43 12.13
11/4/2022 12:30:00 PM 9.69 49.442 0.042 6.92 1.46 12.09
11/4/2022 12:45:00 PM 9.86 49.748 0.042 6.93 1.43 12.05
11/4/2022 1:00:00 PM 9.96 49.928 0.042 6.93 1.39 12
11/4/2022 1:15:00 PM 10.09 50.162 0.042 6.95 3.2 11.96
11/4/2022 1:30:00 PM 10.24 50.432 0.042 6.94 1.47 11.94
11/4/2022 1:45:00 PM 10.38 50.684 0.041 6.96 1.44 11.9
11/4/2022 2:00:00 PM 10.6 51.08 0.041 6.95 1.47 11.87
11/4/2022 2:15:00 PM 10.78 51.404 0.041 6.97 1.4 11.82
11/4/2022 2:30:00 PM 10.9 51.62 0.041 7 1.44 11.79
11/4/2022 2:45:00 PM 11 51.8 0.042 6.99 1.37 11.76
11/4/2022 3:00:00 PM 11.07 51.926 0.041 7.01 1.4 11.73
11/4/2022 3:15:00 PM 11.1 51.98 0.042 6.99 1.39 11.69
11/4/2022 3:30:00 PM 11.11 51.998 0.042 6.95 1.36 11.66
11/4/2022 3:45:00 PM 11.11 51.998 0.041 6.99 1.41 11.63
11/4/2022 4:00:00 PM 11.11 51.998 0.042 6.95 1.38 11.61
11/4/2022 4:15:00 PM 11.08 51.944 0.042 6.94 1.39 11.58
11/4/2022 4:30:00 PM 11.07 51.926 0.041 6.96 1.7 11.55
11/4/2022 4:45:00 PM 11.07 51.926 0.042 6.94 1.42 11.52
11/4/2022 5:00:00 PM 11.05 51.89 0.042 6.91 1.45 11.45
11/4/2022 5:15:00 PM 11.03 51.854 0.042 6.93 1.45 11.37
11/4/2022 5:30:00 PM 11.01 51.818 0.042 6.9 1.48 11.33
11/4/2022 5:45:00 PM 10.97 51.746 0.042 6.88 1.43 11.22
11/4/2022 6:00:00 PM 10.91 51.638 0.042 6.84 1.58 11.11
11/4/2022 6:15:00 PM 10.86 51.548 0.042 6.81 1.4 11.02
11/4/2022 6:30:00 PM 10.82 51.476 0.042 6.8 1.46 10.96
11/4/2022 6:45:00 PM 10.77 51.386 0.043 6.77 1.48 10.93
11/4/2022 7:00:00 PM 10.74 51.332 0.043 6.75 1.43 10.9
11/4/2022 7:15:00 PM 10.71 51.278 0.043 6.8 1.49 10.88
11/4/2022 7:30:00 PM 10.68 51.224 0.043 6.79 1.48 10.87
11/4/2022 7:45:00 PM 10.66 51.188 0.043 6.76 1.5 10.87
11/4/2022 8:00:00 PM 10.63 51.134 0.043 6.76 1.42 10.86
11/4/2022 8:15:00 PM 10.6 51.08 0.043 6.74 1.46 10.86
11/4/2022 8:30:00 PM 10.58 51.044 0.043 6.73 1.43 10.87
11/4/2022 8:45:00 PM 10.56 51.008 0.043 6.75 1.42 10.87
11/4/2022 9:00:00 PM 10.55 50.99 0.043 6.72 1.45 10.86
11/4/2022 9:15:00 PM 10.54 50.972 0.043 6.75 1.42 10.87
11/4/2022 9:30:00 PM 10.52 50.936 0.043 6.7 1.4 10.86
11/4/2022 9:45:00 PM 10.51 50.918 0.043 6.68 1.49 10.87
11/4/2022 10:00:00 PM 10.51 50.918 0.043 6.75 1.43 10.87
11/4/2022 10:15:00 PM 10.53 50.954 0.043 6.7 1.47 10.87
11/4/2022 10:30:00 PM 10.54 50.972 0.043 6.71 1.46 10.88
11/4/2022 10:45:00 PM 10.54 50.972 0.043 6.73 1.5 10.86
11/4/2022 11:00:00 PM 10.55 50.99 0.043 6.72 1.46 10.85
11/4/2022 11:15:00 PM 10.56 51.008 0.043 6.71 2.45 10.85
11/4/2022 11:30:00 PM 10.56 51.008 0.043 6.71 1.4 10.87
11/4/2022 11:45:00 PM 10.56 51.008 0.043 6.69 1.53 10.86
11/5/2022 12:00:00 AM 10.55 50.99 0.043 6.66 1.54 10.86
11/5/2022 12:15:00 AM 10.53 50.954 0.043 6.68 1.43 10.86
11/5/2022 12:30:00 AM 10.52 50.936 0.043 6.7 1.5 10.87
11/5/2022 12:45:00 AM 10.51 50.918 0.043 6.71 1.41 10.87
11/5/2022 1:00:00 AM 10.52 50.936 0.043 6.71 1.45 10.86
11/5/2022 1:15:00 AM 10.54 50.972 0.044 6.7 1.41 10.86
11/5/2022 1:30:00 AM 10.56 51.008 0.043 6.74 1.43 10.85
11/5/2022 1:45:00 AM 10.59 51.062 0.043 6.7 1.47 10.84
11/5/2022 2:00:00 AM 10.62 51.116 0.043 6.68 1.4 10.84
11/5/2022 2:15:00 AM 10.64 51.152 0.043 6.68 1.45 10.83
11/5/2022 2:30:00 AM 10.66 51.188 0.043 6.73 1.47 10.84
11/5/2022 2:45:00 AM 10.68 51.224 0.043 6.69 1.36 10.81
11/5/2022 3:00:00 AM 10.7 51.26 0.043 6.71 1.41 10.82
11/5/2022 3:15:00 AM 10.73 51.314 0.043 6.72 1.43 10.82
11/5/2022 3:30:00 AM 10.76 51.368 0.043 6.75 1.51 10.81
11/5/2022 3:45:00 AM 10.78 51.404 0.043 6.72 1.48 10.8
11/5/2022 4:00:00 AM 10.8 51.44 0.043 6.73 1.49 10.79
11/5/2022 4:15:00 AM 10.81 51.458 0.044 6.75 1.48 10.8
11/5/2022 4:30:00 AM 10.82 51.476 0.044 6.7 1.47 10.79
11/5/2022 4:45:00 AM 10.84 51.512 0.043 6.68 1.47 10.78
11/5/2022 5:00:00 AM 10.85 51.53 0.043 6.68 1.48 10.77
11/5/2022 5:15:00 AM 10.86 51.548 0.043 6.72 1.45 10.78
11/5/2022 5:30:00 AM 10.87 51.566 0.044 6.67 1.41 10.78
11/5/2022 5:45:00 AM 10.88 51.584 0.043 6.67 1.47 10.78
11/5/2022 6:00:00 AM 10.88 51.584 0.043 6.7 1.4 10.78
11/5/2022 6:15:00 AM 10.88 51.584 0.043 6.67 1.45 10.77
11/5/2022 6:30:00 AM 10.89 51.602 0.044 6.72 1.51 10.77
11/5/2022 6:45:00 AM 10.89 51.602 0.043 6.67 1.46 10.77
11/5/2022 7:00:00 AM 10.89 51.602 0.043 6.71 1.48 10.77
11/5/2022 7:15:00 AM 10.89 51.602 0.043 6.68 1.43 10.77
11/5/2022 7:30:00 AM 10.89 51.602 0.043 6.72 1.4 10.75
11/5/2022 7:45:00 AM 10.89 51.602 0.043 6.69 1.44 10.77
11/5/2022 8:00:00 AM 10.89 51.602 0.043 6.68 1.44 10.78
11/5/2022 8:15:00 AM 10.9 51.62 0.043 6.72 1.47 10.81
11/5/2022 8:30:00 AM 10.91 51.638 0.043 6.7 1.52 10.86
11/5/2022 8:45:00 AM 10.92 51.656 0.043 6.73 1.87 10.96
11/5/2022 9:00:00 AM 10.94 51.692 0.043 6.71 1.46 10.99
11/5/2022 9:15:00 AM 10.96 51.728 0.043 6.72 1.39 11.01
11/5/2022 9:30:00 AM 10.99 51.782 0.043 6.72 1.4 11.02
11/5/2022 9:45:00 AM 11.03 51.854 0.043 6.73 1.43 11.12
11/5/2022 10:00:00 AM 11.09 51.962 0.043 6.74 1.51 11.21
11/5/2022 10:15:00 AM 11.15 52.07 0.043 6.78 1.46 11.27
11/5/2022 10:30:00 AM 11.2 52.16 0.043 6.85 1.38 11.27
11/5/2022 10:45:00 AM 11.31 52.358 0.043 6.81 1.39 11.37
11/5/2022 11:00:00 AM 11.4 52.52 0.043 6.83 1.39 11.38
11/5/2022 11:15:00 AM 11.48 52.664 0.043 6.92 1.47 11.39
11/5/2022 11:30:00 AM 11.54 52.772 0.043 6.88 1.39 11.41
11/5/2022 11:45:00 AM 11.63 52.934 0.043 6.91 1.34 11.4
11/5/2022 12:00:00 PM 11.71 53.078 0.043 6.94 1.39 11.42
11/5/2022 12:15:00 PM 11.8 53.24 0.043 6.94 1.43 11.41
11/5/2022 12:30:00 PM 11.93 53.474 0.043 6.99 1.37 11.44
11/5/2022 12:45:00 PM 12.03 53.654 0.043 6.95 1.41 11.42
11/5/2022 1:00:00 PM 12.11 53.798 0.043 6.98 1.38 11.42
11/5/2022 1:15:00 PM 12.2 53.96 0.043 6.99 1.48 11.4
11/5/2022 1:30:00 PM 12.31 54.158 0.042 7.03 1.34 11.38
11/5/2022 1:45:00 PM 12.38 54.284 0.042 6.97 1.37 11.34
11/5/2022 2:00:00 PM 12.41 54.338 0.042 6.97 1.37 11.28
11/5/2022 2:15:00 PM 12.44 54.392 0.042 6.96 1.4 11.22
11/5/2022 2:30:00 PM 12.47 54.446 0.042 6.95 1.39 11.13
11/5/2022 2:45:00 PM 12.49 54.482 0.043 6.94 1.42 11.02
11/5/2022 3:00:00 PM 12.51 54.518 0.042 6.95 1.49 10.96
11/5/2022 3:15:00 PM 12.54 54.572 0.042 6.9 1.44 10.97
11/5/2022 3:30:00 PM 12.57 54.626 0.042 6.91 1.4 11
11/5/2022 3:45:00 PM 12.59 54.662 0.042 6.9 1.37 10.93
11/5/2022 4:00:00 PM 12.59 54.662 0.043 6.89 1.42 10.85
11/5/2022 4:15:00 PM 12.61 54.698 0.043 6.89 1.37 10.78
11/5/2022 4:30:00 PM 12.61 54.698 0.043 6.89 1.42 10.75
11/5/2022 4:45:00 PM 12.63 54.734 0.043 6.85 1.39 10.74
11/5/2022 5:00:00 PM 12.63 54.734 0.043 6.9 1.4 10.75
11/5/2022 5:15:00 PM 12.63 54.734 0.043 6.85 1.36 10.71
11/5/2022 5:30:00 PM 12.63 54.734 0.043 6.83 1.47 10.65
11/5/2022 5:45:00 PM 12.61 54.698 0.043 6.87 1.39 10.57
11/5/2022 6:00:00 PM 12.59 54.662 0.043 6.8 1.46 10.5
11/5/2022 6:15:00 PM 12.59 54.662 0.043 6.78 1.39 10.44
11/5/2022 6:30:00 PM 12.58 54.644 0.043 6.79 1.44 10.36
11/5/2022 6:45:00 PM 12.57 54.626 0.043 6.82 1.41 10.35
11/5/2022 7:00:00 PM 12.56 54.608 0.044 6.75 1.36 10.32
11/5/2022 7:15:00 PM 12.56 54.608 0.044 6.77 1.41 10.32
11/5/2022 7:30:00 PM 12.55 54.59 0.044 6.76 1.45 10.3
11/5/2022 7:45:00 PM 12.54 54.572 0.044 6.79 1.53 10.3
11/5/2022 8:00:00 PM 12.54 54.572 0.044 6.78 1.53 10.29
11/5/2022 8:15:00 PM 12.56 54.608 0.044 6.75 1.46 10.29
11/5/2022 8:30:00 PM 12.56 54.608 0.043 6.74 1.41 10.29
11/5/2022 8:45:00 PM 12.58 54.644 0.044 6.75 1.42 10.28
11/5/2022 9:00:00 PM 12.6 54.68 0.044 6.75 1.52 10.27
11/5/2022 9:15:00 PM 12.61 54.698 0.044 6.76 1.49 10.27
11/5/2022 9:30:00 PM 12.61 54.698 0.044 6.73 1.44 10.27
11/5/2022 9:45:00 PM 12.61 54.698 0.044 6.77 1.42 10.27
11/5/2022 10:00:00 PM 12.61 54.698 0.044 6.74 1.5 10.27
11/5/2022 10:15:00 PM 12.62 54.716 0.044 6.72 1.48 10.27
11/5/2022 10:30:00 PM 12.62 54.716 0.044 6.74 1.48 10.26
11/5/2022 10:45:00 PM 12.63 54.734 0.044 6.72 1.45 10.25
11/5/2022 11:00:00 PM 12.65 54.77 0.044 6.71 1.48 10.25
11/5/2022 11:15:00 PM 12.68 54.824 0.044 6.74 1.49 10.25
11/5/2022 11:30:00 PM 12.7 54.86 0.044 6.7 1.47 10.24
11/5/2022 11:45:00 PM 12.71 54.878 0.044 6.71 1.47 10.24
11/6/2022 12:00:00 AM 12.71 54.878 0.044 6.71 1.4 10.24
11/6/2022 12:15:00 AM 12.72 54.896 0.044 6.73 1.43 10.24
11/6/2022 12:30:00 AM 12.75 54.95 0.044 6.73 1.42 10.23
11/6/2022 12:45:00 AM 12.76 54.968 0.044 6.76 1.44 10.23
11/6/2022 1:00:00 AM 12.77 54.986 0.044 6.73 1.45 10.22
11/6/2022 1:15:00 AM 12.78 55.004 0.044 6.74 1.48 10.22
11/6/2022 1:30:00 AM 12.8 55.04 0.044 6.71 1.53 10.21
11/6/2022 1:45:00 AM 12.81 55.058 0.044 6.71 1.49 10.21
11/6/2022 2:00:00 AM 12.82 55.076 0.044 6.72 1.41 10.21
11/6/2022 2:15:00 AM 12.84 55.112 0.044 6.77 1.48 10.21
11/6/2022 2:30:00 AM 12.88 55.184 0.044 6.71 1.49 10.19
11/6/2022 2:45:00 AM 12.9 55.22 0.044 6.69 1.46 10.19
11/6/2022 3:00:00 AM 12.9 55.22 0.044 6.69 1.5 10.18
11/6/2022 3:15:00 AM 12.9 55.22 0.044 6.58 1.43 10.19
11/6/2022 3:30:00 AM 12.89 55.202 0.044 6.74 1.45 10.19
11/6/2022 3:45:00 AM 12.9 55.22 0.044 6.71 1.56 10.19
11/6/2022 4:00:00 AM 12.9 55.22 0.044 6.71 1.45 10.18
11/6/2022 4:15:00 AM 12.91 55.238 0.044 6.72 1.58 10.19
11/6/2022 4:30:00 AM 12.93 55.274 0.044 6.77 1.43 10.18
11/6/2022 4:45:00 AM 12.95 55.31 0.044 6.72 1.47 10.17
11/6/2022 5:00:00 AM 12.96 55.328 0.044 6.72 1.45 10.18
11/6/2022 5:15:00 AM 12.99 55.382 0.044 6.72 1.48 10.17
11/6/2022 5:30:00 AM 13 55.4 0.044 6.73 1.53 10.17
11/6/2022 5:45:00 AM 13.02 55.436 0.044 6.71 1.49 10.16
11/6/2022 6:00:00 AM 13.02 55.436 0.044 6.73 1.48 10.17
11/6/2022 6:15:00 AM 13.03 55.454 0.044 6.7 1.47 10.17
11/6/2022 6:30:00 AM 13.04 55.472 0.044 6.72 1.48 10.16
11/6/2022 6:45:00 AM 13.05 55.49 0.044 6.77 1.49 10.17
11/6/2022 7:00:00 AM 13.05 55.49 0.044 6.73 1.48 10.16
11/6/2022 7:15:00 AM 13.05 55.49 0.044 6.76 1.46 10.15
11/6/2022 7:30:00 AM 13.04 55.472 0.044 6.72 1.45 10.17
11/6/2022 7:45:00 AM 13.05 55.49 0.044 6.71 1.52 10.17
11/6/2022 8:00:00 AM 13.05 55.49 0.044 6.7 1.53 10.18
11/6/2022 8:15:00 AM 13.06 55.508 0.044 6.7 1.47 10.19
11/6/2022 8:30:00 AM 13.07 55.526 0.044 6.7 1.45 10.21
11/6/2022 8:45:00 AM 13.06 55.508 0.044 6.77 1.43 10.24
11/6/2022 9:00:00 AM 13.06 55.508 0.043 6.73 1.54 10.27
11/6/2022 9:15:00 AM 13.07 55.526 0.044 6.73 1.54 10.31
11/6/2022 9:30:00 AM 13.08 55.544 0.043 6.75 1.53 10.35
11/6/2022 9:45:00 AM 13.08 55.544 0.043 6.75 1.45 10.38
11/6/2022 10:00:00 AM 13.09 55.562 0.043 6.79 1.5 10.41
11/6/2022 10:15:00 AM 13.11 55.598 0.043 6.75 1.43 10.43
11/6/2022 10:30:00 AM 13.11 55.598 0.043 6.8 1.49 10.45
11/6/2022 10:45:00 AM 13.13 55.634 0.043 6.79 1.47 10.53
11/6/2022 11:00:00 AM 13.15 55.67 0.043 6.79 1.48 10.63
11/6/2022 11:15:00 AM 13.18 55.724 0.043 6.86 1.51 10.68
11/6/2022 11:30:00 AM 13.2 55.76 0.043 6.84 1.43 10.75
11/6/2022 11:45:00 AM 13.22 55.796 0.043 6.85 1.39 10.77
11/6/2022 12:00:00 PM 13.23 55.814 0.043 6.84 1.42 10.73
11/6/2022 12:15:00 PM 13.24 55.832 0.043 6.83 1.45 10.72
11/6/2022 12:30:00 PM 13.28 55.904 0.043 6.84 1.52 10.63
11/6/2022 12:45:00 PM 13.28 55.904 0.043 6.8 1.41 10.63
11/6/2022 1:00:00 PM 13.28 55.904 0.043 6.84 1.42 10.63
11/6/2022 1:15:00 PM 13.29 55.922 0.043 6.87 1.44 10.67
11/6/2022 1:30:00 PM 13.32 55.976 0.043 6.84 1.52 10.74
11/6/2022 1:45:00 PM 13.36 56.048 0.042 6.86 1.56 10.82
11/6/2022 2:00:00 PM 13.41 56.138 0.042 6.87 1.44 10.87
11/6/2022 2:15:00 PM 13.46 56.228 0.042 6.92 1.4 10.87
11/6/2022 2:30:00 PM 13.5 56.3 0.042 6.9 1.48 10.86
11/6/2022 2:45:00 PM 13.52 56.336 0.042 6.9 1.45 10.84
11/6/2022 3:00:00 PM 13.55 56.39 0.042 6.97 1.43 10.84
11/6/2022 3:15:00 PM 13.59 56.462 0.042 6.93 1.6 10.86
11/6/2022 3:30:00 PM 13.6 56.48 0.042 6.92 1.46 10.79
11/6/2022 3:45:00 PM 13.6 56.48 0.042 6.89 1.42 10.65
11/6/2022 4:00:00 PM 13.61 56.498 0.042 6.86 1.46 10.56
11/6/2022 4:15:00 PM 13.62 56.516 0.042 6.91 1.44 10.5
11/6/2022 4:30:00 PM 13.61 56.498 0.042 6.87 1.41 10.46
11/6/2022 4:45:00 PM 13.61 56.498 0.043 6.82 1.47 10.36
11/6/2022 5:00:00 PM 13.59 56.462 0.042 6.79 1.44 10.27
11/6/2022 5:15:00 PM 13.58 56.444 0.043 6.78 1.43 10.2
11/6/2022 5:30:00 PM 13.56 56.408 0.043 6.81 1.48 10.16
11/6/2022 5:45:00 PM 13.54 56.372 0.043 6.74 1.47 10.11
11/6/2022 6:00:00 PM 13.54 56.372 0.043 6.75 1.7 10.1
11/6/2022 6:15:00 PM 13.54 56.372 0.043 6.73 1.49 10.09
11/6/2022 6:30:00 PM 13.53 56.354 0.043 6.72 1.53 10.06
11/6/2022 6:45:00 PM 13.53 56.354 0.043 6.71 1.5 10.07
11/6/2022 7:00:00 PM 13.54 56.372 0.043 6.7 1.59 10.06
11/6/2022 7:15:00 PM 13.54 56.372 0.042 6.68 1.46 10.06
11/6/2022 7:30:00 PM 13.54 56.372 0.042 6.71 1.47 10.06
11/6/2022 7:45:00 PM 13.54 56.372 0.042 6.72 1.49 10.05
11/6/2022 8:00:00 PM 13.54 56.372 0.042 6.7 1.49 10.05
11/6/2022 8:15:00 PM 13.54 56.372 0.042 6.7 1.48 10.05
11/6/2022 8:30:00 PM 13.54 56.372 0.042 6.74 2.1 10.06
11/6/2022 8:45:00 PM 13.56 56.408 0.042 6.71 1.5 10.05
11/6/2022 9:00:00 PM 13.57 56.426 0.042 6.75 1.43 10.04
11/6/2022 9:15:00 PM 13.58 56.444 0.042 6.71 1.53 10.05
11/6/2022 9:30:00 PM 13.58 56.444 0.042 6.7 1.47 10.05
11/6/2022 9:45:00 PM 13.59 56.462 0.042 6.69 1.52 10.05
11/6/2022 10:00:00 PM 13.61 56.498 0.042 6.71 1.55 10.04
11/6/2022 10:15:00 PM 13.62 56.516 0.042 6.71 1.45 10.03
11/6/2022 10:30:00 PM 13.64 56.552 0.042 6.73 1.44 10.03
11/6/2022 10:45:00 PM 13.67 56.606 0.042 6.7 1.47 10.02
11/6/2022 11:00:00 PM 13.68 56.624 0.042 6.73 1.59 10.02
11/6/2022 11:15:00 PM 13.69 56.642 0.042 6.72 1.43 10.02
11/6/2022 11:30:00 PM 13.7 56.66 0.042 6.73 1.44 10.02
11/6/2022 11:45:00 PM 13.71 56.678 0.042 6.69 1.45 10.02
11/7/2022 12:00:00 AM 13.72 56.696 0.042 6.71 1.53 10.01
11/7/2022 12:15:00 AM 13.73 56.714 0.042 6.73 1.44 10.01
11/7/2022 12:30:00 AM 13.73 56.714 0.043 6.68 1.53 10
11/7/2022 12:45:00 AM 13.76 56.768 0.042 6.73 1.53 10
11/7/2022 1:00:00 AM 13.78 56.804 0.042 6.71 1.48 10
11/7/2022 1:15:00 AM 13.78 56.804 0.042 6.67 1.54 10
11/7/2022 1:30:00 AM 13.78 56.804 0.042 6.69 1.52 9.99
11/7/2022 1:45:00 AM 13.78 56.804 0.042 6.74 1.47 9.98
11/7/2022 2:00:00 AM 13.77 56.786 0.042 6.67 1.5 9.99
11/7/2022 2:15:00 AM 13.76 56.768 0.042 6.69 1.51 10
11/7/2022 2:30:00 AM 13.75 56.75 0.042 6.73 1.55 9.99
11/7/2022 2:45:00 AM 13.74 56.732 0.042 6.72 1.52 10
11/7/2022 3:00:00 AM 13.7 56.66 0.042 6.72 1.55 10
11/7/2022 3:15:00 AM 13.66 56.588 0.042 6.68 1.53 10.01
11/7/2022 3:30:00 AM 13.63 56.534 0.042 6.72 1.5 10.01
11/7/2022 3:45:00 AM 13.61 56.498 0.042 6.66 1.59 10.02
11/7/2022 4:00:00 AM 13.58 56.444 0.042 6.65 1.54 10.03
11/7/2022 4:15:00 AM 13.53 56.354 0.042 6.63 1.55 10.03
11/7/2022 4:30:00 AM 13.49 56.282 0.043 6.64 1.58 10.04
11/7/2022 4:45:00 AM 13.47 56.246 0.043 6.65 1.54 10.06
11/7/2022 5:00:00 AM 13.45 56.21 0.043 6.64 1.52 10.06
11/7/2022 5:15:00 AM 13.42 56.156 0.043 6.67 1.75 10.07
11/7/2022 5:30:00 AM 13.38 56.084 0.043 6.64 2.17 10.08
11/7/2022 5:45:00 AM 13.33 55.994 0.043 6.64 2 10.1
11/7/2022 6:00:00 AM 13.27 55.886 0.043 6.66 1.98 10.1
11/7/2022 6:15:00 AM 13.23 55.814 0.043 6.68 1.76 10.12
11/7/2022 6:30:00 AM 13.18 55.724 0.043 6.65 1.74 10.13
11/7/2022 6:45:00 AM 13.14 55.652 0.043 6.72 1.63 10.16
11/7/2022 7:00:00 AM 13.08 55.544 0.043 6.67 1.75 10.19
11/7/2022 7:15:00 AM 13.04 55.472 0.043 6.69 1.69 10.26
11/7/2022 7:30:00 AM 13 55.4 0.043 6.68 1.76 10.35
11/7/2022 7:45:00 AM 12.97 55.346 0.043 6.68 1.57 10.46
11/7/2022 8:00:00 AM 12.92 55.256 0.043 6.73 1.64 10.51
11/7/2022 8:15:00 AM 12.88 55.184 0.043 6.72 1.57 10.58

These are provisional data and have not been subject to a quality assurance process, but rather are the raw data reported by the instrument.
H: value is above sensor operating range
L: value is below sensor operating range
Offline: station is not reporting data
NC: parameter is not collected at site

Data Availability & Limitations

Uncertainty and potential for error can be associated with environmental monitoring data. Provisional data have not been subject to a quality assurance process, but rather are the raw data reported by the instrument. Data users are cautioned to consider carefully the provisional nature of the information before using it for decisions that concern personal or public safety or the conduct of business that involves substantial monetary or operational consequences.

Approved data are currently available by request by emailing: srbc@srbc.net. Approved data have been subject to a quality assurance process to correct for equipment or fouling drift. Data recorded during equipment malfunctions have been removed.

View Historical Stations that have been discontinued.